<?xml version="1.0" encoding="UTF-8" standalone="no" ?>
<gpx xmlns="http://www.topografix.com/GPX/1/1" xmlns:xsi="http://www.w3.org/2001/XMLSchema-instance" xsi:schemaLocation="http://www.topografix.com/GPX/1/1 http://www.topografix.com/GPX/1/1/gpx.xsd" version="1.1" creator="VisuGPX - https://www.visugpx.com">
  <metadata>
    <name>Les Menuires - Meribel (par Tougnète)</name>
    <desc><![CDATA[Les Menuires - Méribel par Tougnète. Petite erreur de trajectoire entre les 6,5 km et 8,4 km donc petit détour (qui permet de rajouter un peu de dénivelé ;) )]]></desc>
  </metadata>
  <trk>
    <name><![CDATA[2017-08-13 07:43]]></name>
    <desc><![CDATA[<p>Heure de départ: 08/13/2017 07:45</p><p>Heure d'arrivée: 08/13/2017 12:37</p><p>Distance: 13,4 km (04:51)</p><p>Temps déplacement: 03:24</p><p>Vitesse moyenne: 2,74 km/h</p><p>Vitesse moyenne mouv.: 3,92 km/h</p><p>Vitesse Max.: 6,27km/h</p><p>Altitude minimale: 1761 m</p><p>Altitude maximale: 2409 m</p><p>Vitesse de montée: 274,6 m/h</p><p>Vitesse de descente: -433,3 m/h</p><p>Gain d'altitude: 762 m</p><p>Perte d'altitude: -790 m</p><p>Temps de montée: 02:46</p><p>Temps de descente: 01:49</p><hr align="center" width="480" style="height: 2px; width: 517px"/>]]></desc>
    <trkseg>
      <trkpt lat="45.32624" lon="6.53668">
        <ele>1820.53</ele>
        <time>2017-08-13T05:45:15Z</time>
      </trkpt>
      <trkpt lat="45.32606" lon="6.53676">
        <ele>1800.19</ele>
        <time>2017-08-13T05:45:31Z</time>
      </trkpt>
      <trkpt lat="45.32589" lon="6.53688">
        <ele>1807.58</ele>
        <time>2017-08-13T05:45:48Z</time>
      </trkpt>
      <trkpt lat="45.3257" lon="6.53691">
        <ele>1807.53</ele>
        <time>2017-08-13T05:46:05Z</time>
      </trkpt>
      <trkpt lat="45.32552" lon="6.53693">
        <ele>1805.16</ele>
        <time>2017-08-13T05:46:21Z</time>
      </trkpt>
      <trkpt lat="45.32534" lon="6.53688">
        <ele>1805.78</ele>
        <time>2017-08-13T05:46:39Z</time>
      </trkpt>
      <trkpt lat="45.32516" lon="6.53679">
        <ele>1804.74</ele>
        <time>2017-08-13T05:46:57Z</time>
      </trkpt>
      <trkpt lat="45.32515" lon="6.53705">
        <ele>1803.66</ele>
        <time>2017-08-13T05:47:24Z</time>
      </trkpt>
      <trkpt lat="45.32497" lon="6.53699">
        <ele>1810.28</ele>
        <time>2017-08-13T05:47:52Z</time>
      </trkpt>
      <trkpt lat="45.32478" lon="6.53703">
        <ele>1818.33</ele>
        <time>2017-08-13T05:48:14Z</time>
      </trkpt>
      <trkpt lat="45.32474" lon="6.53728">
        <ele>1817.38</ele>
        <time>2017-08-13T05:48:29Z</time>
      </trkpt>
      <trkpt lat="45.32471" lon="6.53754">
        <ele>1809.53</ele>
        <time>2017-08-13T05:48:48Z</time>
      </trkpt>
      <trkpt lat="45.32465" lon="6.53779">
        <ele>1810.53</ele>
        <time>2017-08-13T05:49:09Z</time>
      </trkpt>
      <trkpt lat="45.32451" lon="6.53794">
        <ele>1798.41</ele>
        <time>2017-08-13T05:49:28Z</time>
      </trkpt>
      <trkpt lat="45.32442" lon="6.53817">
        <ele>1803.67</ele>
        <time>2017-08-13T05:49:43Z</time>
      </trkpt>
      <trkpt lat="45.32427" lon="6.53833">
        <ele>1807.73</ele>
        <time>2017-08-13T05:49:59Z</time>
      </trkpt>
      <trkpt lat="45.3241" lon="6.53841">
        <ele>1809.53</ele>
        <time>2017-08-13T05:50:15Z</time>
      </trkpt>
      <trkpt lat="45.32398" lon="6.53861">
        <ele>1806.76</ele>
        <time>2017-08-13T05:50:30Z</time>
      </trkpt>
      <trkpt lat="45.32391" lon="6.53886">
        <ele>1804.49</ele>
        <time>2017-08-13T05:50:44Z</time>
      </trkpt>
      <trkpt lat="45.32377" lon="6.53902">
        <ele>1808.52</ele>
        <time>2017-08-13T05:51:00Z</time>
      </trkpt>
      <trkpt lat="45.32366" lon="6.53924">
        <ele>1808.53</ele>
        <time>2017-08-13T05:51:16Z</time>
      </trkpt>
      <trkpt lat="45.32364" lon="6.5395">
        <ele>1805.53</ele>
        <time>2017-08-13T05:51:31Z</time>
      </trkpt>
      <trkpt lat="45.32356" lon="6.53973">
        <ele>1812.53</ele>
        <time>2017-08-13T05:51:50Z</time>
      </trkpt>
      <trkpt lat="45.32341" lon="6.53988">
        <ele>1823.48</ele>
        <time>2017-08-13T05:52:15Z</time>
      </trkpt>
      <trkpt lat="45.32334" lon="6.54013">
        <ele>1825.53</ele>
        <time>2017-08-13T05:52:33Z</time>
      </trkpt>
      <trkpt lat="45.32332" lon="6.54039">
        <ele>1821.49</ele>
        <time>2017-08-13T05:52:49Z</time>
      </trkpt>
      <trkpt lat="45.32326" lon="6.54064">
        <ele>1824.68</ele>
        <time>2017-08-13T05:53:09Z</time>
      </trkpt>
      <trkpt lat="45.32337" lon="6.54086">
        <ele>1823.53</ele>
        <time>2017-08-13T05:53:29Z</time>
      </trkpt>
      <trkpt lat="45.32353" lon="6.54097">
        <ele>1830.48</ele>
        <time>2017-08-13T05:53:46Z</time>
      </trkpt>
      <trkpt lat="45.3237" lon="6.54109">
        <ele>1838.37</ele>
        <time>2017-08-13T05:54:05Z</time>
      </trkpt>
      <trkpt lat="45.32387" lon="6.54119">
        <ele>1844.36</ele>
        <time>2017-08-13T05:54:23Z</time>
      </trkpt>
      <trkpt lat="45.32404" lon="6.54109">
        <ele>1843.93</ele>
        <time>2017-08-13T05:54:39Z</time>
      </trkpt>
      <trkpt lat="45.32422" lon="6.541">
        <ele>1846.52</ele>
        <time>2017-08-13T05:54:53Z</time>
      </trkpt>
      <trkpt lat="45.3244" lon="6.54094">
        <ele>1851.33</ele>
        <time>2017-08-13T05:55:08Z</time>
      </trkpt>
      <trkpt lat="45.32458" lon="6.54088">
        <ele>1856.32</ele>
        <time>2017-08-13T05:55:23Z</time>
      </trkpt>
      <trkpt lat="45.32475" lon="6.54083">
        <ele>1855.53</ele>
        <time>2017-08-13T05:55:39Z</time>
      </trkpt>
      <trkpt lat="45.32493" lon="6.54074">
        <ele>1858.52</ele>
        <time>2017-08-13T05:55:55Z</time>
      </trkpt>
      <trkpt lat="45.32511" lon="6.54068">
        <ele>1859.53</ele>
        <time>2017-08-13T05:56:13Z</time>
      </trkpt>
      <trkpt lat="45.32529" lon="6.54067">
        <ele>1862.72</ele>
        <time>2017-08-13T05:56:30Z</time>
      </trkpt>
      <trkpt lat="45.32548" lon="6.54063">
        <ele>1864.92</ele>
        <time>2017-08-13T05:56:47Z</time>
      </trkpt>
      <trkpt lat="45.32567" lon="6.5406">
        <ele>1867.52</ele>
        <time>2017-08-13T05:57:02Z</time>
      </trkpt>
      <trkpt lat="45.32572" lon="6.54085">
        <ele>1867.57</ele>
        <time>2017-08-13T05:57:33Z</time>
      </trkpt>
      <trkpt lat="45.32562" lon="6.54107">
        <ele>1866.89</ele>
        <time>2017-08-13T05:57:52Z</time>
      </trkpt>
      <trkpt lat="45.32548" lon="6.54124">
        <ele>1867.76</ele>
        <time>2017-08-13T05:58:10Z</time>
      </trkpt>
      <trkpt lat="45.32535" lon="6.54143">
        <ele>1873.49</ele>
        <time>2017-08-13T05:58:28Z</time>
      </trkpt>
      <trkpt lat="45.32518" lon="6.54157">
        <ele>1875.33</ele>
        <time>2017-08-13T05:58:46Z</time>
      </trkpt>
      <trkpt lat="45.32503" lon="6.54172">
        <ele>1879.49</ele>
        <time>2017-08-13T05:59:07Z</time>
      </trkpt>
      <trkpt lat="45.3249" lon="6.54191">
        <ele>1883.33</ele>
        <time>2017-08-13T05:59:28Z</time>
      </trkpt>
      <trkpt lat="45.32492" lon="6.54217">
        <ele>1889.44</ele>
        <time>2017-08-13T05:59:48Z</time>
      </trkpt>
      <trkpt lat="45.32508" lon="6.54229">
        <ele>1898.24</ele>
        <time>2017-08-13T06:00:04Z</time>
      </trkpt>
      <trkpt lat="45.32526" lon="6.54235">
        <ele>1904.52</ele>
        <time>2017-08-13T06:00:25Z</time>
      </trkpt>
      <trkpt lat="45.32544" lon="6.54236">
        <ele>1904.37</ele>
        <time>2017-08-13T06:00:45Z</time>
      </trkpt>
      <trkpt lat="45.32563" lon="6.54231">
        <ele>1903.52</ele>
        <time>2017-08-13T06:01:03Z</time>
      </trkpt>
      <trkpt lat="45.32581" lon="6.54228">
        <ele>1905.33</ele>
        <time>2017-08-13T06:01:22Z</time>
      </trkpt>
      <trkpt lat="45.32599" lon="6.54223">
        <ele>1905.55</ele>
        <time>2017-08-13T06:01:42Z</time>
      </trkpt>
      <trkpt lat="45.32617" lon="6.54218">
        <ele>1907.44</ele>
        <time>2017-08-13T06:02:00Z</time>
      </trkpt>
      <trkpt lat="45.32635" lon="6.54213">
        <ele>1913.48</ele>
        <time>2017-08-13T06:03:53Z</time>
      </trkpt>
      <trkpt lat="45.32653" lon="6.54217">
        <ele>1917.61</ele>
        <time>2017-08-13T06:04:11Z</time>
      </trkpt>
      <trkpt lat="45.32671" lon="6.5422">
        <ele>1920.37</ele>
        <time>2017-08-13T06:04:31Z</time>
      </trkpt>
      <trkpt lat="45.3269" lon="6.54218">
        <ele>1925.17</ele>
        <time>2017-08-13T06:04:48Z</time>
      </trkpt>
      <trkpt lat="45.32708" lon="6.54217">
        <ele>1920.48</ele>
        <time>2017-08-13T06:05:05Z</time>
      </trkpt>
      <trkpt lat="45.32726" lon="6.54209">
        <ele>1925.31</ele>
        <time>2017-08-13T06:05:23Z</time>
      </trkpt>
      <trkpt lat="45.32744" lon="6.54201">
        <ele>1927.45</ele>
        <time>2017-08-13T06:05:40Z</time>
      </trkpt>
      <trkpt lat="45.32762" lon="6.54193">
        <ele>1930.3</ele>
        <time>2017-08-13T06:05:57Z</time>
      </trkpt>
      <trkpt lat="45.3278" lon="6.54186">
        <ele>1931.48</ele>
        <time>2017-08-13T06:06:14Z</time>
      </trkpt>
      <trkpt lat="45.32799" lon="6.54183">
        <ele>1933.44</ele>
        <time>2017-08-13T06:06:31Z</time>
      </trkpt>
      <trkpt lat="45.32817" lon="6.54186">
        <ele>1937.33</ele>
        <time>2017-08-13T06:06:48Z</time>
      </trkpt>
      <trkpt lat="45.32834" lon="6.54195">
        <ele>1939.32</ele>
        <time>2017-08-13T06:07:05Z</time>
      </trkpt>
      <trkpt lat="45.32851" lon="6.54206">
        <ele>1940.33</ele>
        <time>2017-08-13T06:07:22Z</time>
      </trkpt>
      <trkpt lat="45.32868" lon="6.54217">
        <ele>1942.53</ele>
        <time>2017-08-13T06:07:38Z</time>
      </trkpt>
      <trkpt lat="45.32885" lon="6.54227">
        <ele>1942.52</ele>
        <time>2017-08-13T06:07:55Z</time>
      </trkpt>
      <trkpt lat="45.32903" lon="6.54228">
        <ele>1940.33</ele>
        <time>2017-08-13T06:08:11Z</time>
      </trkpt>
      <trkpt lat="45.32922" lon="6.54224">
        <ele>1946.52</ele>
        <time>2017-08-13T06:08:28Z</time>
      </trkpt>
      <trkpt lat="45.3294" lon="6.5422">
        <ele>1950.49</ele>
        <time>2017-08-13T06:08:47Z</time>
      </trkpt>
      <trkpt lat="45.32958" lon="6.54216">
        <ele>1954.49</ele>
        <time>2017-08-13T06:09:06Z</time>
      </trkpt>
      <trkpt lat="45.32977" lon="6.54213">
        <ele>1956.33</ele>
        <time>2017-08-13T06:09:25Z</time>
      </trkpt>
      <trkpt lat="45.32996" lon="6.54214">
        <ele>1960.53</ele>
        <time>2017-08-13T06:09:43Z</time>
      </trkpt>
      <trkpt lat="45.33014" lon="6.54219">
        <ele>1961.53</ele>
        <time>2017-08-13T06:10:01Z</time>
      </trkpt>
      <trkpt lat="45.33033" lon="6.54221">
        <ele>1961.53</ele>
        <time>2017-08-13T06:10:18Z</time>
      </trkpt>
      <trkpt lat="45.33051" lon="6.5422">
        <ele>1962.49</ele>
        <time>2017-08-13T06:10:35Z</time>
      </trkpt>
      <trkpt lat="45.3307" lon="6.5422">
        <ele>1963.34</ele>
        <time>2017-08-13T06:10:51Z</time>
      </trkpt>
      <trkpt lat="45.33089" lon="6.54221">
        <ele>1964.53</ele>
        <time>2017-08-13T06:11:08Z</time>
      </trkpt>
      <trkpt lat="45.33107" lon="6.54221">
        <ele>1965.53</ele>
        <time>2017-08-13T06:11:24Z</time>
      </trkpt>
      <trkpt lat="45.33125" lon="6.54222">
        <ele>1967.49</ele>
        <time>2017-08-13T06:11:40Z</time>
      </trkpt>
      <trkpt lat="45.33144" lon="6.54227">
        <ele>1968.53</ele>
        <time>2017-08-13T06:11:57Z</time>
      </trkpt>
      <trkpt lat="45.33161" lon="6.54233">
        <ele>1968.33</ele>
        <time>2017-08-13T06:12:13Z</time>
      </trkpt>
      <trkpt lat="45.33178" lon="6.54246">
        <ele>1967.57</ele>
        <time>2017-08-13T06:12:30Z</time>
      </trkpt>
      <trkpt lat="45.33192" lon="6.54264">
        <ele>1968.49</ele>
        <time>2017-08-13T06:12:47Z</time>
      </trkpt>
      <trkpt lat="45.33207" lon="6.5428">
        <ele>1968.52</ele>
        <time>2017-08-13T06:13:04Z</time>
      </trkpt>
      <trkpt lat="45.33224" lon="6.54291">
        <ele>1970.53</ele>
        <time>2017-08-13T06:13:20Z</time>
      </trkpt>
      <trkpt lat="45.33241" lon="6.54301">
        <ele>1976.52</ele>
        <time>2017-08-13T06:13:36Z</time>
      </trkpt>
      <trkpt lat="45.33259" lon="6.54309">
        <ele>1980.32</ele>
        <time>2017-08-13T06:13:53Z</time>
      </trkpt>
      <trkpt lat="45.33278" lon="6.54311">
        <ele>1984.53</ele>
        <time>2017-08-13T06:14:11Z</time>
      </trkpt>
      <trkpt lat="45.33296" lon="6.54314">
        <ele>1988.33</ele>
        <time>2017-08-13T06:14:29Z</time>
      </trkpt>
      <trkpt lat="45.33315" lon="6.54315">
        <ele>1988.73</ele>
        <time>2017-08-13T06:14:48Z</time>
      </trkpt>
      <trkpt lat="45.33333" lon="6.54315">
        <ele>1993.33</ele>
        <time>2017-08-13T06:15:07Z</time>
      </trkpt>
      <trkpt lat="45.33351" lon="6.54314">
        <ele>1995.36</ele>
        <time>2017-08-13T06:15:27Z</time>
      </trkpt>
      <trkpt lat="45.3337" lon="6.54312">
        <ele>1991.53</ele>
        <time>2017-08-13T06:15:46Z</time>
      </trkpt>
      <trkpt lat="45.33388" lon="6.54311">
        <ele>1995.52</ele>
        <time>2017-08-13T06:16:08Z</time>
      </trkpt>
      <trkpt lat="45.33406" lon="6.54318">
        <ele>1999.53</ele>
        <time>2017-08-13T06:16:28Z</time>
      </trkpt>
      <trkpt lat="45.33423" lon="6.54326">
        <ele>2005.53</ele>
        <time>2017-08-13T06:16:46Z</time>
      </trkpt>
      <trkpt lat="45.33441" lon="6.54332">
        <ele>2009.49</ele>
        <time>2017-08-13T06:17:07Z</time>
      </trkpt>
      <trkpt lat="45.33458" lon="6.54339">
        <ele>2012.54</ele>
        <time>2017-08-13T06:17:26Z</time>
      </trkpt>
      <trkpt lat="45.33477" lon="6.54346">
        <ele>2014.54</ele>
        <time>2017-08-13T06:17:45Z</time>
      </trkpt>
      <trkpt lat="45.33495" lon="6.54349">
        <ele>2017.49</ele>
        <time>2017-08-13T06:18:06Z</time>
      </trkpt>
      <trkpt lat="45.33513" lon="6.54346">
        <ele>2016.49</ele>
        <time>2017-08-13T06:18:25Z</time>
      </trkpt>
      <trkpt lat="45.33531" lon="6.54339">
        <ele>2016.57</ele>
        <time>2017-08-13T06:18:44Z</time>
      </trkpt>
      <trkpt lat="45.33549" lon="6.54335">
        <ele>2017.53</ele>
        <time>2017-08-13T06:19:03Z</time>
      </trkpt>
      <trkpt lat="45.33568" lon="6.54332">
        <ele>2019.53</ele>
        <time>2017-08-13T06:19:22Z</time>
      </trkpt>
      <trkpt lat="45.33585" lon="6.54339">
        <ele>2022.53</ele>
        <time>2017-08-13T06:19:39Z</time>
      </trkpt>
      <trkpt lat="45.336" lon="6.54354">
        <ele>2023.73</ele>
        <time>2017-08-13T06:19:56Z</time>
      </trkpt>
      <trkpt lat="45.33614" lon="6.54371">
        <ele>2026.49</ele>
        <time>2017-08-13T06:20:12Z</time>
      </trkpt>
      <trkpt lat="45.33629" lon="6.54386">
        <ele>2025.52</ele>
        <time>2017-08-13T06:20:28Z</time>
      </trkpt>
      <trkpt lat="45.33646" lon="6.54398">
        <ele>2029.53</ele>
        <time>2017-08-13T06:20:45Z</time>
      </trkpt>
      <trkpt lat="45.33664" lon="6.54402">
        <ele>2032.52</ele>
        <time>2017-08-13T06:21:03Z</time>
      </trkpt>
      <trkpt lat="45.33682" lon="6.54408">
        <ele>2031.53</ele>
        <time>2017-08-13T06:21:21Z</time>
      </trkpt>
      <trkpt lat="45.33701" lon="6.54409">
        <ele>2034.49</ele>
        <time>2017-08-13T06:21:39Z</time>
      </trkpt>
      <trkpt lat="45.33719" lon="6.54405">
        <ele>2034.5</ele>
        <time>2017-08-13T06:21:59Z</time>
      </trkpt>
      <trkpt lat="45.33738" lon="6.544">
        <ele>2035.53</ele>
        <time>2017-08-13T06:22:18Z</time>
      </trkpt>
      <trkpt lat="45.33756" lon="6.54398">
        <ele>2037.53</ele>
        <time>2017-08-13T06:22:36Z</time>
      </trkpt>
      <trkpt lat="45.33774" lon="6.54403">
        <ele>2040.52</ele>
        <time>2017-08-13T06:22:55Z</time>
      </trkpt>
      <trkpt lat="45.33792" lon="6.54412">
        <ele>2043.49</ele>
        <time>2017-08-13T06:23:13Z</time>
      </trkpt>
      <trkpt lat="45.33809" lon="6.54424">
        <ele>2047.32</ele>
        <time>2017-08-13T06:25:22Z</time>
      </trkpt>
      <trkpt lat="45.33825" lon="6.5444">
        <ele>2048.33</ele>
        <time>2017-08-13T06:25:39Z</time>
      </trkpt>
      <trkpt lat="45.33838" lon="6.54457">
        <ele>2055.49</ele>
        <time>2017-08-13T06:25:55Z</time>
      </trkpt>
      <trkpt lat="45.33852" lon="6.54473">
        <ele>2055.73</ele>
        <time>2017-08-13T06:26:12Z</time>
      </trkpt>
      <trkpt lat="45.3387" lon="6.54481">
        <ele>2055.5</ele>
        <time>2017-08-13T06:26:29Z</time>
      </trkpt>
      <trkpt lat="45.33888" lon="6.54486">
        <ele>2056.33</ele>
        <time>2017-08-13T06:26:47Z</time>
      </trkpt>
      <trkpt lat="45.33907" lon="6.54484">
        <ele>2055.69</ele>
        <time>2017-08-13T06:27:04Z</time>
      </trkpt>
      <trkpt lat="45.33925" lon="6.54479">
        <ele>2058.33</ele>
        <time>2017-08-13T06:27:22Z</time>
      </trkpt>
      <trkpt lat="45.33943" lon="6.54471">
        <ele>2059.33</ele>
        <time>2017-08-13T06:27:39Z</time>
      </trkpt>
      <trkpt lat="45.3396" lon="6.54464">
        <ele>2064.33</ele>
        <time>2017-08-13T06:27:56Z</time>
      </trkpt>
      <trkpt lat="45.33977" lon="6.54454">
        <ele>2067.33</ele>
        <time>2017-08-13T06:28:14Z</time>
      </trkpt>
      <trkpt lat="45.33993" lon="6.5444">
        <ele>2069.33</ele>
        <time>2017-08-13T06:28:32Z</time>
      </trkpt>
      <trkpt lat="45.34008" lon="6.54425">
        <ele>2071.69</ele>
        <time>2017-08-13T06:28:51Z</time>
      </trkpt>
      <trkpt lat="45.34021" lon="6.54405">
        <ele>2074.33</ele>
        <time>2017-08-13T06:29:09Z</time>
      </trkpt>
      <trkpt lat="45.34033" lon="6.54385">
        <ele>2077.57</ele>
        <time>2017-08-13T06:29:29Z</time>
      </trkpt>
      <trkpt lat="45.34045" lon="6.54364">
        <ele>2080.53</ele>
        <time>2017-08-13T06:29:47Z</time>
      </trkpt>
      <trkpt lat="45.34056" lon="6.54343">
        <ele>2082.36</ele>
        <time>2017-08-13T06:30:06Z</time>
      </trkpt>
      <trkpt lat="45.3407" lon="6.54326">
        <ele>2083.53</ele>
        <time>2017-08-13T06:30:25Z</time>
      </trkpt>
      <trkpt lat="45.34088" lon="6.54319">
        <ele>2085.54</ele>
        <time>2017-08-13T06:33:50Z</time>
      </trkpt>
      <trkpt lat="45.34107" lon="6.5432">
        <ele>2087.52</ele>
        <time>2017-08-13T06:34:04Z</time>
      </trkpt>
      <trkpt lat="45.34125" lon="6.54324">
        <ele>2089.53</ele>
        <time>2017-08-13T06:34:19Z</time>
      </trkpt>
      <trkpt lat="45.34143" lon="6.54328">
        <ele>2091.33</ele>
        <time>2017-08-13T06:34:35Z</time>
      </trkpt>
      <trkpt lat="45.34162" lon="6.54331">
        <ele>2092.33</ele>
        <time>2017-08-13T06:34:51Z</time>
      </trkpt>
      <trkpt lat="45.3418" lon="6.54331">
        <ele>2093.52</ele>
        <time>2017-08-13T06:35:06Z</time>
      </trkpt>
      <trkpt lat="45.34199" lon="6.54327">
        <ele>2092.72</ele>
        <time>2017-08-13T06:35:21Z</time>
      </trkpt>
      <trkpt lat="45.34217" lon="6.54328">
        <ele>2095.52</ele>
        <time>2017-08-13T06:35:36Z</time>
      </trkpt>
      <trkpt lat="45.34233" lon="6.5434">
        <ele>2097.53</ele>
        <time>2017-08-13T06:35:51Z</time>
      </trkpt>
      <trkpt lat="45.34252" lon="6.54346">
        <ele>2096.53</ele>
        <time>2017-08-13T06:36:06Z</time>
      </trkpt>
      <trkpt lat="45.34268" lon="6.54359">
        <ele>2096.57</ele>
        <time>2017-08-13T06:36:24Z</time>
      </trkpt>
      <trkpt lat="45.34279" lon="6.54379">
        <ele>2098.49</ele>
        <time>2017-08-13T06:36:43Z</time>
      </trkpt>
      <trkpt lat="45.34291" lon="6.54398">
        <ele>2101.49</ele>
        <time>2017-08-13T06:37:00Z</time>
      </trkpt>
      <trkpt lat="45.34304" lon="6.54416">
        <ele>2103.53</ele>
        <time>2017-08-13T06:37:18Z</time>
      </trkpt>
      <trkpt lat="45.3432" lon="6.54432">
        <ele>2105.57</ele>
        <time>2017-08-13T06:37:35Z</time>
      </trkpt>
      <trkpt lat="45.34336" lon="6.54444">
        <ele>2110.52</ele>
        <time>2017-08-13T06:37:54Z</time>
      </trkpt>
      <trkpt lat="45.34354" lon="6.54451">
        <ele>2111.6</ele>
        <time>2017-08-13T06:38:13Z</time>
      </trkpt>
      <trkpt lat="45.34371" lon="6.5446">
        <ele>2116.29</ele>
        <time>2017-08-13T06:38:32Z</time>
      </trkpt>
      <trkpt lat="45.34389" lon="6.54466">
        <ele>2119.52</ele>
        <time>2017-08-13T06:38:50Z</time>
      </trkpt>
      <trkpt lat="45.34407" lon="6.54469">
        <ele>2120.69</ele>
        <time>2017-08-13T06:39:08Z</time>
      </trkpt>
      <trkpt lat="45.34426" lon="6.54473">
        <ele>2122.32</ele>
        <time>2017-08-13T06:39:27Z</time>
      </trkpt>
      <trkpt lat="45.34444" lon="6.54478">
        <ele>2124.52</ele>
        <time>2017-08-13T06:39:45Z</time>
      </trkpt>
      <trkpt lat="45.34462" lon="6.54481">
        <ele>2126.34</ele>
        <time>2017-08-13T06:40:05Z</time>
      </trkpt>
      <trkpt lat="45.3448" lon="6.5449">
        <ele>2131.53</ele>
        <time>2017-08-13T06:40:26Z</time>
      </trkpt>
      <trkpt lat="45.34498" lon="6.54496">
        <ele>2134.33</ele>
        <time>2017-08-13T06:40:47Z</time>
      </trkpt>
      <trkpt lat="45.34515" lon="6.54503">
        <ele>2134.53</ele>
        <time>2017-08-13T06:41:05Z</time>
      </trkpt>
      <trkpt lat="45.34534" lon="6.5451">
        <ele>2137.52</ele>
        <time>2017-08-13T06:41:23Z</time>
      </trkpt>
      <trkpt lat="45.34551" lon="6.5452">
        <ele>2138.53</ele>
        <time>2017-08-13T06:41:42Z</time>
      </trkpt>
      <trkpt lat="45.34568" lon="6.54531">
        <ele>2140.33</ele>
        <time>2017-08-13T06:42:01Z</time>
      </trkpt>
      <trkpt lat="45.34583" lon="6.54545">
        <ele>2142.49</ele>
        <time>2017-08-13T06:42:18Z</time>
      </trkpt>
      <trkpt lat="45.34599" lon="6.54559">
        <ele>2144.37</ele>
        <time>2017-08-13T06:42:34Z</time>
      </trkpt>
      <trkpt lat="45.34614" lon="6.54573">
        <ele>2146.5</ele>
        <time>2017-08-13T06:42:51Z</time>
      </trkpt>
      <trkpt lat="45.34632" lon="6.54581">
        <ele>2148.54</ele>
        <time>2017-08-13T06:43:09Z</time>
      </trkpt>
      <trkpt lat="45.3465" lon="6.54583">
        <ele>2151.52</ele>
        <time>2017-08-13T06:43:29Z</time>
      </trkpt>
      <trkpt lat="45.34669" lon="6.54582">
        <ele>2151.53</ele>
        <time>2017-08-13T06:43:47Z</time>
      </trkpt>
      <trkpt lat="45.34688" lon="6.54586">
        <ele>2154.53</ele>
        <time>2017-08-13T06:44:06Z</time>
      </trkpt>
      <trkpt lat="45.34706" lon="6.54589">
        <ele>2156.53</ele>
        <time>2017-08-13T06:44:24Z</time>
      </trkpt>
      <trkpt lat="45.34725" lon="6.54594">
        <ele>2158.53</ele>
        <time>2017-08-13T06:44:43Z</time>
      </trkpt>
      <trkpt lat="45.34742" lon="6.54603">
        <ele>2158.58</ele>
        <time>2017-08-13T06:45:00Z</time>
      </trkpt>
      <trkpt lat="45.34758" lon="6.54615">
        <ele>2161.53</ele>
        <time>2017-08-13T06:45:18Z</time>
      </trkpt>
      <trkpt lat="45.34773" lon="6.54631">
        <ele>2163.53</ele>
        <time>2017-08-13T06:45:37Z</time>
      </trkpt>
      <trkpt lat="45.34776" lon="6.54657">
        <ele>2164.53</ele>
        <time>2017-08-13T06:45:58Z</time>
      </trkpt>
      <trkpt lat="45.34778" lon="6.54683">
        <ele>2166.53</ele>
        <time>2017-08-13T06:46:18Z</time>
      </trkpt>
      <trkpt lat="45.34783" lon="6.54709">
        <ele>2169.53</ele>
        <time>2017-08-13T06:46:40Z</time>
      </trkpt>
      <trkpt lat="45.34791" lon="6.54734">
        <ele>2171.53</ele>
        <time>2017-08-13T06:48:26Z</time>
      </trkpt>
      <trkpt lat="45.34791" lon="6.5476">
        <ele>2169.57</ele>
        <time>2017-08-13T06:48:42Z</time>
      </trkpt>
      <trkpt lat="45.34791" lon="6.54786">
        <ele>2169.53</ele>
        <time>2017-08-13T06:48:58Z</time>
      </trkpt>
      <trkpt lat="45.34799" lon="6.54809">
        <ele>2172.33</ele>
        <time>2017-08-13T06:49:14Z</time>
      </trkpt>
      <trkpt lat="45.3481" lon="6.5483">
        <ele>2172.33</ele>
        <time>2017-08-13T06:49:30Z</time>
      </trkpt>
      <trkpt lat="45.34823" lon="6.54848">
        <ele>2175.33</ele>
        <time>2017-08-13T06:49:47Z</time>
      </trkpt>
      <trkpt lat="45.34839" lon="6.54862">
        <ele>2174.53</ele>
        <time>2017-08-13T06:50:02Z</time>
      </trkpt>
      <trkpt lat="45.3485" lon="6.54883">
        <ele>2171.53</ele>
        <time>2017-08-13T06:50:19Z</time>
      </trkpt>
      <trkpt lat="45.34861" lon="6.54904">
        <ele>2170.53</ele>
        <time>2017-08-13T06:50:35Z</time>
      </trkpt>
      <trkpt lat="45.34867" lon="6.54929">
        <ele>2172.53</ele>
        <time>2017-08-13T06:50:51Z</time>
      </trkpt>
      <trkpt lat="45.34865" lon="6.54955">
        <ele>2175.33</ele>
        <time>2017-08-13T06:51:07Z</time>
      </trkpt>
      <trkpt lat="45.34865" lon="6.54981">
        <ele>2178.33</ele>
        <time>2017-08-13T06:51:24Z</time>
      </trkpt>
      <trkpt lat="45.34873" lon="6.55004">
        <ele>2182.53</ele>
        <time>2017-08-13T06:51:42Z</time>
      </trkpt>
      <trkpt lat="45.34889" lon="6.55017">
        <ele>2184.53</ele>
        <time>2017-08-13T06:52:02Z</time>
      </trkpt>
      <trkpt lat="45.34908" lon="6.55021">
        <ele>2188.49</ele>
        <time>2017-08-13T06:52:22Z</time>
      </trkpt>
      <trkpt lat="45.34926" lon="6.55023">
        <ele>2191.53</ele>
        <time>2017-08-13T06:52:43Z</time>
      </trkpt>
      <trkpt lat="45.34945" lon="6.55024">
        <ele>2197.53</ele>
        <time>2017-08-13T06:53:03Z</time>
      </trkpt>
      <trkpt lat="45.34964" lon="6.55028">
        <ele>2197.54</ele>
        <time>2017-08-13T06:53:21Z</time>
      </trkpt>
      <trkpt lat="45.34983" lon="6.5503">
        <ele>2197.54</ele>
        <time>2017-08-13T06:53:40Z</time>
      </trkpt>
      <trkpt lat="45.35001" lon="6.55033">
        <ele>2199.53</ele>
        <time>2017-08-13T06:53:58Z</time>
      </trkpt>
      <trkpt lat="45.35019" lon="6.55036">
        <ele>2202.49</ele>
        <time>2017-08-13T06:54:17Z</time>
      </trkpt>
      <trkpt lat="45.35037" lon="6.5504">
        <ele>2205.53</ele>
        <time>2017-08-13T06:54:37Z</time>
      </trkpt>
      <trkpt lat="45.35054" lon="6.5505">
        <ele>2209.5</ele>
        <time>2017-08-13T06:54:56Z</time>
      </trkpt>
      <trkpt lat="45.35072" lon="6.5506">
        <ele>2208.53</ele>
        <time>2017-08-13T06:55:14Z</time>
      </trkpt>
      <trkpt lat="45.3509" lon="6.55064">
        <ele>2211.33</ele>
        <time>2017-08-13T06:55:32Z</time>
      </trkpt>
      <trkpt lat="45.35109" lon="6.55062">
        <ele>2217.34</ele>
        <time>2017-08-13T06:56:13Z</time>
      </trkpt>
      <trkpt lat="45.35127" lon="6.55062">
        <ele>2220.53</ele>
        <time>2017-08-13T06:56:30Z</time>
      </trkpt>
      <trkpt lat="45.35146" lon="6.55064">
        <ele>2220.33</ele>
        <time>2017-08-13T06:56:46Z</time>
      </trkpt>
      <trkpt lat="45.35163" lon="6.55074">
        <ele>2219.53</ele>
        <time>2017-08-13T06:57:03Z</time>
      </trkpt>
      <trkpt lat="45.35176" lon="6.55093">
        <ele>2219.7</ele>
        <time>2017-08-13T06:57:21Z</time>
      </trkpt>
      <trkpt lat="45.35189" lon="6.55111">
        <ele>2220.57</ele>
        <time>2017-08-13T06:57:38Z</time>
      </trkpt>
      <trkpt lat="45.35202" lon="6.5513">
        <ele>2221.52</ele>
        <time>2017-08-13T06:57:55Z</time>
      </trkpt>
      <trkpt lat="45.35216" lon="6.55148">
        <ele>2222.49</ele>
        <time>2017-08-13T06:58:12Z</time>
      </trkpt>
      <trkpt lat="45.3523" lon="6.55166">
        <ele>2223.38</ele>
        <time>2017-08-13T06:58:31Z</time>
      </trkpt>
      <trkpt lat="45.35239" lon="6.55188">
        <ele>2220.57</ele>
        <time>2017-08-13T06:58:51Z</time>
      </trkpt>
      <trkpt lat="45.35249" lon="6.55211">
        <ele>2221.53</ele>
        <time>2017-08-13T06:59:08Z</time>
      </trkpt>
      <trkpt lat="45.35252" lon="6.55237">
        <ele>2222.33</ele>
        <time>2017-08-13T06:59:28Z</time>
      </trkpt>
      <trkpt lat="45.35256" lon="6.55262">
        <ele>2226.49</ele>
        <time>2017-08-13T06:59:50Z</time>
      </trkpt>
      <trkpt lat="45.35263" lon="6.55286">
        <ele>2231.53</ele>
        <time>2017-08-13T07:00:19Z</time>
      </trkpt>
      <trkpt lat="45.35273" lon="6.55309">
        <ele>2216.29</ele>
        <time>2017-08-13T07:00:45Z</time>
      </trkpt>
      <trkpt lat="45.35286" lon="6.55327">
        <ele>2232.12</ele>
        <time>2017-08-13T07:01:06Z</time>
      </trkpt>
      <trkpt lat="45.35301" lon="6.55343">
        <ele>2234.19</ele>
        <time>2017-08-13T07:01:23Z</time>
      </trkpt>
      <trkpt lat="45.35319" lon="6.55349">
        <ele>2237.12</ele>
        <time>2017-08-13T07:01:38Z</time>
      </trkpt>
      <trkpt lat="45.35337" lon="6.55358">
        <ele>2225.84</ele>
        <time>2017-08-13T07:01:54Z</time>
      </trkpt>
      <trkpt lat="45.35354" lon="6.55365">
        <ele>2236.52</ele>
        <time>2017-08-13T07:02:12Z</time>
      </trkpt>
      <trkpt lat="45.35372" lon="6.55368">
        <ele>2204.5</ele>
        <time>2017-08-13T07:02:31Z</time>
      </trkpt>
      <trkpt lat="45.35391" lon="6.55371">
        <ele>2201.71</ele>
        <time>2017-08-13T07:02:49Z</time>
      </trkpt>
      <trkpt lat="45.35406" lon="6.55386">
        <ele>2241.22</ele>
        <time>2017-08-13T07:04:55Z</time>
      </trkpt>
      <trkpt lat="45.35423" lon="6.55394">
        <ele>2243.04</ele>
        <time>2017-08-13T07:05:27Z</time>
      </trkpt>
      <trkpt lat="45.35431" lon="6.55417">
        <ele>2234.32</ele>
        <time>2017-08-13T07:05:50Z</time>
      </trkpt>
      <trkpt lat="45.35441" lon="6.55394">
        <ele>2247.52</ele>
        <time>2017-08-13T07:11:07Z</time>
      </trkpt>
      <trkpt lat="45.35459" lon="6.55405">
        <ele>2247.47</ele>
        <time>2017-08-13T07:11:26Z</time>
      </trkpt>
      <trkpt lat="45.35474" lon="6.55418">
        <ele>2239.28</ele>
        <time>2017-08-13T07:11:41Z</time>
      </trkpt>
      <trkpt lat="45.3549" lon="6.55431">
        <ele>2251.08</ele>
        <time>2017-08-13T07:11:57Z</time>
      </trkpt>
      <trkpt lat="45.35506" lon="6.55445">
        <ele>2248.81</ele>
        <time>2017-08-13T07:12:16Z</time>
      </trkpt>
      <trkpt lat="45.35522" lon="6.55457">
        <ele>2250.84</ele>
        <time>2017-08-13T07:12:33Z</time>
      </trkpt>
      <trkpt lat="45.35538" lon="6.55471">
        <ele>2250.84</ele>
        <time>2017-08-13T07:12:51Z</time>
      </trkpt>
      <trkpt lat="45.35553" lon="6.55487">
        <ele>2248.28</ele>
        <time>2017-08-13T07:13:10Z</time>
      </trkpt>
      <trkpt lat="45.35568" lon="6.55502">
        <ele>2246.49</ele>
        <time>2017-08-13T07:13:29Z</time>
      </trkpt>
      <trkpt lat="45.35585" lon="6.55513">
        <ele>2259.84</ele>
        <time>2017-08-13T07:13:48Z</time>
      </trkpt>
      <trkpt lat="45.35601" lon="6.55525">
        <ele>2268.06</ele>
        <time>2017-08-13T07:14:05Z</time>
      </trkpt>
      <trkpt lat="45.35616" lon="6.55539">
        <ele>2265.8</ele>
        <time>2017-08-13T07:14:22Z</time>
      </trkpt>
      <trkpt lat="45.3563" lon="6.55557">
        <ele>2264.64</ele>
        <time>2017-08-13T07:14:39Z</time>
      </trkpt>
      <trkpt lat="45.35648" lon="6.55565">
        <ele>2272.4</ele>
        <time>2017-08-13T07:14:56Z</time>
      </trkpt>
      <trkpt lat="45.35665" lon="6.55575">
        <ele>2269.43</ele>
        <time>2017-08-13T07:15:13Z</time>
      </trkpt>
      <trkpt lat="45.35681" lon="6.55589">
        <ele>2271.18</ele>
        <time>2017-08-13T07:15:32Z</time>
      </trkpt>
      <trkpt lat="45.35698" lon="6.556">
        <ele>2256.95</ele>
        <time>2017-08-13T07:15:50Z</time>
      </trkpt>
      <trkpt lat="45.35715" lon="6.55607">
        <ele>2279.67</ele>
        <time>2017-08-13T07:16:08Z</time>
      </trkpt>
      <trkpt lat="45.35733" lon="6.55605">
        <ele>2263.68</ele>
        <time>2017-08-13T07:16:22Z</time>
      </trkpt>
      <trkpt lat="45.35752" lon="6.55603">
        <ele>2282.08</ele>
        <time>2017-08-13T07:16:39Z</time>
      </trkpt>
      <trkpt lat="45.3577" lon="6.55598">
        <ele>2284.27</ele>
        <time>2017-08-13T07:16:56Z</time>
      </trkpt>
      <trkpt lat="45.35789" lon="6.55592">
        <ele>2288.06</ele>
        <time>2017-08-13T07:17:13Z</time>
      </trkpt>
      <trkpt lat="45.35806" lon="6.55585">
        <ele>2279.69</ele>
        <time>2017-08-13T07:17:30Z</time>
      </trkpt>
      <trkpt lat="45.35824" lon="6.55577">
        <ele>2280.28</ele>
        <time>2017-08-13T07:17:49Z</time>
      </trkpt>
      <trkpt lat="45.35842" lon="6.5557">
        <ele>2298.28</ele>
        <time>2017-08-13T07:18:07Z</time>
      </trkpt>
      <trkpt lat="45.3586" lon="6.55563">
        <ele>2300.27</ele>
        <time>2017-08-13T07:18:26Z</time>
      </trkpt>
      <trkpt lat="45.35878" lon="6.55559">
        <ele>2299.47</ele>
        <time>2017-08-13T07:18:46Z</time>
      </trkpt>
      <trkpt lat="45.35897" lon="6.55561">
        <ele>2292.9</ele>
        <time>2017-08-13T07:19:11Z</time>
      </trkpt>
      <trkpt lat="45.35915" lon="6.55566">
        <ele>2306.41</ele>
        <time>2017-08-13T07:19:36Z</time>
      </trkpt>
      <trkpt lat="45.35933" lon="6.55565">
        <ele>2262.06</ele>
        <time>2017-08-13T07:20:00Z</time>
      </trkpt>
      <trkpt lat="45.3595" lon="6.55576">
        <ele>2316.11</ele>
        <time>2017-08-13T07:20:26Z</time>
      </trkpt>
      <trkpt lat="45.35965" lon="6.55589">
        <ele>2318.76</ele>
        <time>2017-08-13T07:20:56Z</time>
      </trkpt>
      <trkpt lat="45.35982" lon="6.556">
        <ele>2313.81</ele>
        <time>2017-08-13T07:21:43Z</time>
      </trkpt>
      <trkpt lat="45.35999" lon="6.55614">
        <ele>2319.17</ele>
        <time>2017-08-13T07:22:06Z</time>
      </trkpt>
      <trkpt lat="45.36015" lon="6.55625">
        <ele>2327.25</ele>
        <time>2017-08-13T07:22:28Z</time>
      </trkpt>
      <trkpt lat="45.36032" lon="6.55637">
        <ele>2327.82</ele>
        <time>2017-08-13T07:23:00Z</time>
      </trkpt>
      <trkpt lat="45.36048" lon="6.55648">
        <ele>2331.79</ele>
        <time>2017-08-13T07:23:22Z</time>
      </trkpt>
      <trkpt lat="45.36066" lon="6.55655">
        <ele>2330.48</ele>
        <time>2017-08-13T07:23:42Z</time>
      </trkpt>
      <trkpt lat="45.36084" lon="6.55654">
        <ele>2335.8</ele>
        <time>2017-08-13T07:24:03Z</time>
      </trkpt>
      <trkpt lat="45.36102" lon="6.55646">
        <ele>2338.95</ele>
        <time>2017-08-13T07:24:22Z</time>
      </trkpt>
      <trkpt lat="45.3612" lon="6.55652">
        <ele>2348.02</ele>
        <time>2017-08-13T07:24:45Z</time>
      </trkpt>
      <trkpt lat="45.36138" lon="6.55658">
        <ele>2346.99</ele>
        <time>2017-08-13T07:25:04Z</time>
      </trkpt>
      <trkpt lat="45.36156" lon="6.55667">
        <ele>2343.69</ele>
        <time>2017-08-13T07:25:22Z</time>
      </trkpt>
      <trkpt lat="45.3617" lon="6.55684">
        <ele>2351.02</ele>
        <time>2017-08-13T07:25:43Z</time>
      </trkpt>
      <trkpt lat="45.36186" lon="6.55696">
        <ele>2347.7</ele>
        <time>2017-08-13T07:26:01Z</time>
      </trkpt>
      <trkpt lat="45.36204" lon="6.55697">
        <ele>2356.46</ele>
        <time>2017-08-13T07:26:18Z</time>
      </trkpt>
      <trkpt lat="45.36222" lon="6.55692">
        <ele>2339.83</ele>
        <time>2017-08-13T07:26:39Z</time>
      </trkpt>
      <trkpt lat="45.36241" lon="6.5569">
        <ele>2351.2</ele>
        <time>2017-08-13T07:27:10Z</time>
      </trkpt>
      <trkpt lat="45.36258" lon="6.55702">
        <ele>2356.23</ele>
        <time>2017-08-13T07:27:31Z</time>
      </trkpt>
      <trkpt lat="45.36275" lon="6.55708">
        <ele>2348.04</ele>
        <time>2017-08-13T07:27:50Z</time>
      </trkpt>
      <trkpt lat="45.36293" lon="6.55712">
        <ele>2359.07</ele>
        <time>2017-08-13T07:28:10Z</time>
      </trkpt>
      <trkpt lat="45.36312" lon="6.55717">
        <ele>2377.28</ele>
        <time>2017-08-13T07:28:29Z</time>
      </trkpt>
      <trkpt lat="45.3633" lon="6.5572">
        <ele>2362.4</ele>
        <time>2017-08-13T07:28:50Z</time>
      </trkpt>
      <trkpt lat="45.36347" lon="6.55734">
        <ele>2374.83</ele>
        <time>2017-08-13T07:29:12Z</time>
      </trkpt>
      <trkpt lat="45.36363" lon="6.55746">
        <ele>2373.65</ele>
        <time>2017-08-13T07:29:42Z</time>
      </trkpt>
      <trkpt lat="45.36381" lon="6.55752">
        <ele>2376.69</ele>
        <time>2017-08-13T07:30:02Z</time>
      </trkpt>
      <trkpt lat="45.36399" lon="6.5576">
        <ele>2386.19</ele>
        <time>2017-08-13T07:30:24Z</time>
      </trkpt>
      <trkpt lat="45.36417" lon="6.55761">
        <ele>2387.73</ele>
        <time>2017-08-13T07:30:43Z</time>
      </trkpt>
      <trkpt lat="45.36427" lon="6.55783">
        <ele>2397.53</ele>
        <time>2017-08-13T07:31:21Z</time>
      </trkpt>
      <trkpt lat="45.36445" lon="6.55774">
        <ele>2409.34</ele>
        <time>2017-08-13T08:19:53Z</time>
      </trkpt>
      <trkpt lat="45.36463" lon="6.5577">
        <ele>2404.53</ele>
        <time>2017-08-13T08:20:20Z</time>
      </trkpt>
      <trkpt lat="45.36477" lon="6.55752">
        <ele>2404.53</ele>
        <time>2017-08-13T08:20:55Z</time>
      </trkpt>
      <trkpt lat="45.36495" lon="6.55741">
        <ele>2402.53</ele>
        <time>2017-08-13T08:21:10Z</time>
      </trkpt>
      <trkpt lat="45.36512" lon="6.55732">
        <ele>2400.53</ele>
        <time>2017-08-13T08:21:26Z</time>
      </trkpt>
      <trkpt lat="45.36529" lon="6.55722">
        <ele>2399.53</ele>
        <time>2017-08-13T08:21:42Z</time>
      </trkpt>
      <trkpt lat="45.36546" lon="6.55713">
        <ele>2397.53</ele>
        <time>2017-08-13T08:21:58Z</time>
      </trkpt>
      <trkpt lat="45.36564" lon="6.55705">
        <ele>2397.53</ele>
        <time>2017-08-13T08:22:15Z</time>
      </trkpt>
      <trkpt lat="45.3658" lon="6.55694">
        <ele>2392.53</ele>
        <time>2017-08-13T08:23:30Z</time>
      </trkpt>
      <trkpt lat="45.36599" lon="6.5569">
        <ele>2387.57</ele>
        <time>2017-08-13T08:23:56Z</time>
      </trkpt>
      <trkpt lat="45.36616" lon="6.55682">
        <ele>2376.77</ele>
        <time>2017-08-13T08:24:20Z</time>
      </trkpt>
      <trkpt lat="45.3663" lon="6.55664">
        <ele>2372.33</ele>
        <time>2017-08-13T08:24:42Z</time>
      </trkpt>
      <trkpt lat="45.3663" lon="6.55638">
        <ele>2372.7</ele>
        <time>2017-08-13T08:25:04Z</time>
      </trkpt>
      <trkpt lat="45.36644" lon="6.55621">
        <ele>2368.53</ele>
        <time>2017-08-13T08:25:32Z</time>
      </trkpt>
      <trkpt lat="45.36662" lon="6.55614">
        <ele>2365.56</ele>
        <time>2017-08-13T08:25:51Z</time>
      </trkpt>
      <trkpt lat="45.36676" lon="6.55596">
        <ele>2361.54</ele>
        <time>2017-08-13T08:26:09Z</time>
      </trkpt>
      <trkpt lat="45.36691" lon="6.55582">
        <ele>2359.53</ele>
        <time>2017-08-13T08:26:30Z</time>
      </trkpt>
      <trkpt lat="45.36704" lon="6.55561">
        <ele>2355.54</ele>
        <time>2017-08-13T08:26:50Z</time>
      </trkpt>
      <trkpt lat="45.36713" lon="6.55539">
        <ele>2352.5</ele>
        <time>2017-08-13T08:27:11Z</time>
      </trkpt>
      <trkpt lat="45.36725" lon="6.55518">
        <ele>2350.53</ele>
        <time>2017-08-13T08:27:30Z</time>
      </trkpt>
      <trkpt lat="45.36737" lon="6.55498">
        <ele>2347.61</ele>
        <time>2017-08-13T08:27:48Z</time>
      </trkpt>
      <trkpt lat="45.36749" lon="6.55478">
        <ele>2344.57</ele>
        <time>2017-08-13T08:30:11Z</time>
      </trkpt>
      <trkpt lat="45.36752" lon="6.55452">
        <ele>2341.53</ele>
        <time>2017-08-13T08:30:27Z</time>
      </trkpt>
      <trkpt lat="45.36756" lon="6.55427">
        <ele>2341.53</ele>
        <time>2017-08-13T08:30:43Z</time>
      </trkpt>
      <trkpt lat="45.36764" lon="6.55403">
        <ele>2340.34</ele>
        <time>2017-08-13T08:31:00Z</time>
      </trkpt>
      <trkpt lat="45.36775" lon="6.55382">
        <ele>2336.57</ele>
        <time>2017-08-13T08:31:19Z</time>
      </trkpt>
      <trkpt lat="45.36789" lon="6.55364">
        <ele>2332.53</ele>
        <time>2017-08-13T08:31:47Z</time>
      </trkpt>
      <trkpt lat="45.36802" lon="6.55346">
        <ele>2325.73</ele>
        <time>2017-08-13T08:32:07Z</time>
      </trkpt>
      <trkpt lat="45.36818" lon="6.55331">
        <ele>2324.53</ele>
        <time>2017-08-13T08:32:21Z</time>
      </trkpt>
      <trkpt lat="45.36833" lon="6.55316">
        <ele>2323.53</ele>
        <time>2017-08-13T08:32:36Z</time>
      </trkpt>
      <trkpt lat="45.36847" lon="6.55298">
        <ele>2324.53</ele>
        <time>2017-08-13T08:32:51Z</time>
      </trkpt>
      <trkpt lat="45.36856" lon="6.55275">
        <ele>2323.69</ele>
        <time>2017-08-13T08:33:07Z</time>
      </trkpt>
      <trkpt lat="45.36867" lon="6.55253">
        <ele>2325.33</ele>
        <time>2017-08-13T08:33:24Z</time>
      </trkpt>
      <trkpt lat="45.36885" lon="6.55245">
        <ele>2326.53</ele>
        <time>2017-08-13T08:33:42Z</time>
      </trkpt>
      <trkpt lat="45.36903" lon="6.5524">
        <ele>2327.33</ele>
        <time>2017-08-13T08:33:57Z</time>
      </trkpt>
      <trkpt lat="45.36919" lon="6.55228">
        <ele>2327.53</ele>
        <time>2017-08-13T08:34:12Z</time>
      </trkpt>
      <trkpt lat="45.36933" lon="6.55211">
        <ele>2327.53</ele>
        <time>2017-08-13T08:34:28Z</time>
      </trkpt>
      <trkpt lat="45.36947" lon="6.55195">
        <ele>2327.52</ele>
        <time>2017-08-13T08:34:43Z</time>
      </trkpt>
      <trkpt lat="45.36963" lon="6.55179">
        <ele>2325.53</ele>
        <time>2017-08-13T08:34:58Z</time>
      </trkpt>
      <trkpt lat="45.36979" lon="6.55166">
        <ele>2324.53</ele>
        <time>2017-08-13T08:38:06Z</time>
      </trkpt>
      <trkpt lat="45.36994" lon="6.5515">
        <ele>2322.53</ele>
        <time>2017-08-13T08:38:20Z</time>
      </trkpt>
      <trkpt lat="45.3701" lon="6.55136">
        <ele>2322.53</ele>
        <time>2017-08-13T08:38:35Z</time>
      </trkpt>
      <trkpt lat="45.37027" lon="6.55126">
        <ele>2321.33</ele>
        <time>2017-08-13T08:38:51Z</time>
      </trkpt>
      <trkpt lat="45.37044" lon="6.55117">
        <ele>2320.53</ele>
        <time>2017-08-13T08:39:07Z</time>
      </trkpt>
      <trkpt lat="45.37061" lon="6.55107">
        <ele>2317.73</ele>
        <time>2017-08-13T08:39:52Z</time>
      </trkpt>
      <trkpt lat="45.37078" lon="6.55095">
        <ele>2316.53</ele>
        <time>2017-08-13T08:40:07Z</time>
      </trkpt>
      <trkpt lat="45.37096" lon="6.55091">
        <ele>2313.57</ele>
        <time>2017-08-13T08:40:24Z</time>
      </trkpt>
      <trkpt lat="45.37115" lon="6.55093">
        <ele>2310.73</ele>
        <time>2017-08-13T08:40:43Z</time>
      </trkpt>
      <trkpt lat="45.37132" lon="6.55098">
        <ele>2307.53</ele>
        <time>2017-08-13T08:41:03Z</time>
      </trkpt>
      <trkpt lat="45.37151" lon="6.55101">
        <ele>2301.57</ele>
        <time>2017-08-13T08:41:22Z</time>
      </trkpt>
      <trkpt lat="45.3717" lon="6.55099">
        <ele>2299.53</ele>
        <time>2017-08-13T08:41:39Z</time>
      </trkpt>
      <trkpt lat="45.37189" lon="6.55092">
        <ele>2298.54</ele>
        <time>2017-08-13T08:41:56Z</time>
      </trkpt>
      <trkpt lat="45.37207" lon="6.55093">
        <ele>2296.53</ele>
        <time>2017-08-13T08:42:12Z</time>
      </trkpt>
      <trkpt lat="45.37225" lon="6.551">
        <ele>2293.53</ele>
        <time>2017-08-13T08:42:29Z</time>
      </trkpt>
      <trkpt lat="45.37243" lon="6.55107">
        <ele>2290.53</ele>
        <time>2017-08-13T08:42:46Z</time>
      </trkpt>
      <trkpt lat="45.3726" lon="6.551">
        <ele>2285.57</ele>
        <time>2017-08-13T08:43:04Z</time>
      </trkpt>
      <trkpt lat="45.37276" lon="6.55088">
        <ele>2280.54</ele>
        <time>2017-08-13T08:43:23Z</time>
      </trkpt>
      <trkpt lat="45.37293" lon="6.55076">
        <ele>2275.53</ele>
        <time>2017-08-13T08:43:44Z</time>
      </trkpt>
      <trkpt lat="45.37311" lon="6.5507">
        <ele>2273.53</ele>
        <time>2017-08-13T08:44:03Z</time>
      </trkpt>
      <trkpt lat="45.37329" lon="6.5507">
        <ele>2272.53</ele>
        <time>2017-08-13T08:44:20Z</time>
      </trkpt>
      <trkpt lat="45.37347" lon="6.55076">
        <ele>2272.53</ele>
        <time>2017-08-13T08:44:36Z</time>
      </trkpt>
      <trkpt lat="45.37365" lon="6.55079">
        <ele>2271.53</ele>
        <time>2017-08-13T08:44:52Z</time>
      </trkpt>
      <trkpt lat="45.37384" lon="6.55077">
        <ele>2269.57</ele>
        <time>2017-08-13T08:45:08Z</time>
      </trkpt>
      <trkpt lat="45.37401" lon="6.5507">
        <ele>2266.57</ele>
        <time>2017-08-13T08:45:26Z</time>
      </trkpt>
      <trkpt lat="45.37419" lon="6.55062">
        <ele>2262.53</ele>
        <time>2017-08-13T08:45:45Z</time>
      </trkpt>
      <trkpt lat="45.37437" lon="6.55056">
        <ele>2259.73</ele>
        <time>2017-08-13T08:46:02Z</time>
      </trkpt>
      <trkpt lat="45.37455" lon="6.55048">
        <ele>2256.57</ele>
        <time>2017-08-13T08:46:22Z</time>
      </trkpt>
      <trkpt lat="45.37469" lon="6.55033">
        <ele>2253.53</ele>
        <time>2017-08-13T08:46:48Z</time>
      </trkpt>
      <trkpt lat="45.37487" lon="6.55025">
        <ele>2249.73</ele>
        <time>2017-08-13T08:47:06Z</time>
      </trkpt>
      <trkpt lat="45.37506" lon="6.55025">
        <ele>2246.57</ele>
        <time>2017-08-13T08:47:25Z</time>
      </trkpt>
      <trkpt lat="45.37523" lon="6.55031">
        <ele>2240.73</ele>
        <time>2017-08-13T08:47:45Z</time>
      </trkpt>
      <trkpt lat="45.3754" lon="6.5504">
        <ele>2235.73</ele>
        <time>2017-08-13T08:48:04Z</time>
      </trkpt>
      <trkpt lat="45.37556" lon="6.55054">
        <ele>2232.54</ele>
        <time>2017-08-13T08:48:25Z</time>
      </trkpt>
      <trkpt lat="45.37541" lon="6.55039">
        <ele>2234.53</ele>
        <time>2017-08-13T08:51:06Z</time>
      </trkpt>
      <trkpt lat="45.37524" lon="6.55032">
        <ele>2237.52</ele>
        <time>2017-08-13T08:51:22Z</time>
      </trkpt>
      <trkpt lat="45.37506" lon="6.55025">
        <ele>2241.53</ele>
        <time>2017-08-13T08:51:41Z</time>
      </trkpt>
      <trkpt lat="45.37488" lon="6.55021">
        <ele>2246.33</ele>
        <time>2017-08-13T08:52:02Z</time>
      </trkpt>
      <trkpt lat="45.3747" lon="6.5503">
        <ele>2249.52</ele>
        <time>2017-08-13T08:52:25Z</time>
      </trkpt>
      <trkpt lat="45.37455" lon="6.55045">
        <ele>2253.33</ele>
        <time>2017-08-13T08:53:12Z</time>
      </trkpt>
      <trkpt lat="45.37437" lon="6.55052">
        <ele>2258.49</ele>
        <time>2017-08-13T08:53:32Z</time>
      </trkpt>
      <trkpt lat="45.37419" lon="6.5506">
        <ele>2262.53</ele>
        <time>2017-08-13T08:53:52Z</time>
      </trkpt>
      <trkpt lat="45.37402" lon="6.55066">
        <ele>2265.33</ele>
        <time>2017-08-13T08:54:11Z</time>
      </trkpt>
      <trkpt lat="45.37384" lon="6.55074">
        <ele>2267.53</ele>
        <time>2017-08-13T08:54:32Z</time>
      </trkpt>
      <trkpt lat="45.37365" lon="6.55077">
        <ele>2268.33</ele>
        <time>2017-08-13T08:54:50Z</time>
      </trkpt>
      <trkpt lat="45.37347" lon="6.55075">
        <ele>2268.53</ele>
        <time>2017-08-13T08:55:07Z</time>
      </trkpt>
      <trkpt lat="45.37329" lon="6.5507">
        <ele>2268.53</ele>
        <time>2017-08-13T08:55:23Z</time>
      </trkpt>
      <trkpt lat="45.3731" lon="6.55068">
        <ele>2270.53</ele>
        <time>2017-08-13T08:55:41Z</time>
      </trkpt>
      <trkpt lat="45.37293" lon="6.55074">
        <ele>2273.53</ele>
        <time>2017-08-13T08:56:03Z</time>
      </trkpt>
      <trkpt lat="45.37276" lon="6.55085">
        <ele>2277.53</ele>
        <time>2017-08-13T08:56:30Z</time>
      </trkpt>
      <trkpt lat="45.37261" lon="6.551">
        <ele>2282.53</ele>
        <time>2017-08-13T08:57:01Z</time>
      </trkpt>
      <trkpt lat="45.37243" lon="6.55107">
        <ele>2287.53</ele>
        <time>2017-08-13T08:57:33Z</time>
      </trkpt>
      <trkpt lat="45.37226" lon="6.55101">
        <ele>2290.52</ele>
        <time>2017-08-13T08:57:54Z</time>
      </trkpt>
      <trkpt lat="45.37209" lon="6.55092">
        <ele>2292.53</ele>
        <time>2017-08-13T08:58:15Z</time>
      </trkpt>
      <trkpt lat="45.3719" lon="6.55089">
        <ele>2295.33</ele>
        <time>2017-08-13T08:58:39Z</time>
      </trkpt>
      <trkpt lat="45.37172" lon="6.55094">
        <ele>2296.53</ele>
        <time>2017-08-13T08:58:59Z</time>
      </trkpt>
      <trkpt lat="45.37153" lon="6.55096">
        <ele>2299.52</ele>
        <time>2017-08-13T08:59:20Z</time>
      </trkpt>
      <trkpt lat="45.37135" lon="6.55092">
        <ele>2303.53</ele>
        <time>2017-08-13T08:59:45Z</time>
      </trkpt>
      <trkpt lat="45.37117" lon="6.55088">
        <ele>2307.53</ele>
        <time>2017-08-13T09:00:12Z</time>
      </trkpt>
      <trkpt lat="45.37099" lon="6.55086">
        <ele>2312.52</ele>
        <time>2017-08-13T09:00:35Z</time>
      </trkpt>
      <trkpt lat="45.3708" lon="6.55092">
        <ele>2315.33</ele>
        <time>2017-08-13T09:01:32Z</time>
      </trkpt>
      <trkpt lat="45.37063" lon="6.55101">
        <ele>2316.53</ele>
        <time>2017-08-13T09:01:51Z</time>
      </trkpt>
      <trkpt lat="45.37046" lon="6.55111">
        <ele>2316.53</ele>
        <time>2017-08-13T09:02:07Z</time>
      </trkpt>
      <trkpt lat="45.37029" lon="6.55121">
        <ele>2319.52</ele>
        <time>2017-08-13T09:02:24Z</time>
      </trkpt>
      <trkpt lat="45.37012" lon="6.55131">
        <ele>2319.53</ele>
        <time>2017-08-13T09:02:40Z</time>
      </trkpt>
      <trkpt lat="45.36996" lon="6.55143">
        <ele>2319.52</ele>
        <time>2017-08-13T09:02:56Z</time>
      </trkpt>
      <trkpt lat="45.3698" lon="6.55159">
        <ele>2319.53</ele>
        <time>2017-08-13T09:03:14Z</time>
      </trkpt>
      <trkpt lat="45.36965" lon="6.55172">
        <ele>2320.49</ele>
        <time>2017-08-13T09:03:30Z</time>
      </trkpt>
      <trkpt lat="45.36949" lon="6.55185">
        <ele>2321.53</ele>
        <time>2017-08-13T09:03:46Z</time>
      </trkpt>
      <trkpt lat="45.36935" lon="6.55203">
        <ele>2321.49</ele>
        <time>2017-08-13T09:04:02Z</time>
      </trkpt>
      <trkpt lat="45.36921" lon="6.55219">
        <ele>2321.53</ele>
        <time>2017-08-13T09:04:17Z</time>
      </trkpt>
      <trkpt lat="45.36906" lon="6.55234">
        <ele>2322.69</ele>
        <time>2017-08-13T09:04:32Z</time>
      </trkpt>
      <trkpt lat="45.36888" lon="6.5524">
        <ele>2322.53</ele>
        <time>2017-08-13T09:04:48Z</time>
      </trkpt>
      <trkpt lat="45.3687" lon="6.55248">
        <ele>2323.49</ele>
        <time>2017-08-13T09:05:04Z</time>
      </trkpt>
      <trkpt lat="45.36857" lon="6.55267">
        <ele>2324.53</ele>
        <time>2017-08-13T09:05:24Z</time>
      </trkpt>
      <trkpt lat="45.36848" lon="6.5529">
        <ele>2323.53</ele>
        <time>2017-08-13T09:05:41Z</time>
      </trkpt>
      <trkpt lat="45.36835" lon="6.5531">
        <ele>2323.53</ele>
        <time>2017-08-13T09:05:57Z</time>
      </trkpt>
      <trkpt lat="45.3682" lon="6.55327">
        <ele>2322.7</ele>
        <time>2017-08-13T09:06:13Z</time>
      </trkpt>
      <trkpt lat="45.36814" lon="6.55352">
        <ele>2321.57</ele>
        <time>2017-08-13T09:06:29Z</time>
      </trkpt>
      <trkpt lat="45.36812" lon="6.55378">
        <ele>2317.74</ele>
        <time>2017-08-13T09:06:49Z</time>
      </trkpt>
      <trkpt lat="45.36814" lon="6.55404">
        <ele>2313.54</ele>
        <time>2017-08-13T09:07:07Z</time>
      </trkpt>
      <trkpt lat="45.36817" lon="6.55429">
        <ele>2310.53</ele>
        <time>2017-08-13T09:07:24Z</time>
      </trkpt>
      <trkpt lat="45.36835" lon="6.55428">
        <ele>2305.53</ele>
        <time>2017-08-13T09:07:44Z</time>
      </trkpt>
      <trkpt lat="45.36844" lon="6.55404">
        <ele>2302.73</ele>
        <time>2017-08-13T09:08:54Z</time>
      </trkpt>
      <trkpt lat="45.36855" lon="6.55382">
        <ele>2299.53</ele>
        <time>2017-08-13T09:09:13Z</time>
      </trkpt>
      <trkpt lat="45.36869" lon="6.55366">
        <ele>2295.54</ele>
        <time>2017-08-13T09:09:36Z</time>
      </trkpt>
      <trkpt lat="45.36886" lon="6.55353">
        <ele>2292.57</ele>
        <time>2017-08-13T09:09:57Z</time>
      </trkpt>
      <trkpt lat="45.3689" lon="6.55378">
        <ele>2282.56</ele>
        <time>2017-08-13T09:10:18Z</time>
      </trkpt>
      <trkpt lat="45.36892" lon="6.55403">
        <ele>2281.73</ele>
        <time>2017-08-13T09:10:34Z</time>
      </trkpt>
      <trkpt lat="45.36897" lon="6.55428">
        <ele>2279.54</ele>
        <time>2017-08-13T09:10:50Z</time>
      </trkpt>
      <trkpt lat="45.36909" lon="6.55448">
        <ele>2279.53</ele>
        <time>2017-08-13T09:11:05Z</time>
      </trkpt>
      <trkpt lat="45.36924" lon="6.55463">
        <ele>2278.36</ele>
        <time>2017-08-13T09:11:21Z</time>
      </trkpt>
      <trkpt lat="45.36937" lon="6.55481">
        <ele>2272.74</ele>
        <time>2017-08-13T09:11:39Z</time>
      </trkpt>
      <trkpt lat="45.36948" lon="6.55502">
        <ele>2269.54</ele>
        <time>2017-08-13T09:12:10Z</time>
      </trkpt>
      <trkpt lat="45.3695" lon="6.55528">
        <ele>2262.58</ele>
        <time>2017-08-13T09:12:28Z</time>
      </trkpt>
      <trkpt lat="45.36947" lon="6.55554">
        <ele>2258.57</ele>
        <time>2017-08-13T09:12:48Z</time>
      </trkpt>
      <trkpt lat="45.36941" lon="6.5558">
        <ele>2252.57</ele>
        <time>2017-08-13T09:13:06Z</time>
      </trkpt>
      <trkpt lat="45.36937" lon="6.55607">
        <ele>2249.53</ele>
        <time>2017-08-13T09:13:22Z</time>
      </trkpt>
      <trkpt lat="45.36935" lon="6.55633">
        <ele>2247.56</ele>
        <time>2017-08-13T09:13:39Z</time>
      </trkpt>
      <trkpt lat="45.36936" lon="6.5566">
        <ele>2244.7</ele>
        <time>2017-08-13T09:13:56Z</time>
      </trkpt>
      <trkpt lat="45.36936" lon="6.55685">
        <ele>2242.53</ele>
        <time>2017-08-13T09:14:12Z</time>
      </trkpt>
      <trkpt lat="45.36935" lon="6.55712">
        <ele>2240.74</ele>
        <time>2017-08-13T09:14:29Z</time>
      </trkpt>
      <trkpt lat="45.36925" lon="6.55734">
        <ele>2237.53</ele>
        <time>2017-08-13T09:14:47Z</time>
      </trkpt>
      <trkpt lat="45.36919" lon="6.55759">
        <ele>2235.56</ele>
        <time>2017-08-13T09:15:06Z</time>
      </trkpt>
      <trkpt lat="45.36916" lon="6.55785">
        <ele>2226.7</ele>
        <time>2017-08-13T09:15:23Z</time>
      </trkpt>
      <trkpt lat="45.36907" lon="6.55809">
        <ele>2229.53</ele>
        <time>2017-08-13T09:15:58Z</time>
      </trkpt>
      <trkpt lat="45.36893" lon="6.55826">
        <ele>2227.33</ele>
        <time>2017-08-13T09:17:26Z</time>
      </trkpt>
      <trkpt lat="45.36881" lon="6.55846">
        <ele>2221.57</ele>
        <time>2017-08-13T09:17:43Z</time>
      </trkpt>
      <trkpt lat="45.3687" lon="6.55867">
        <ele>2220.49</ele>
        <time>2017-08-13T09:18:01Z</time>
      </trkpt>
      <trkpt lat="45.36855" lon="6.55883">
        <ele>2222.52</ele>
        <time>2017-08-13T09:18:19Z</time>
      </trkpt>
      <trkpt lat="45.36842" lon="6.55901">
        <ele>2222.52</ele>
        <time>2017-08-13T09:18:34Z</time>
      </trkpt>
      <trkpt lat="45.36835" lon="6.55925">
        <ele>2215.93</ele>
        <time>2017-08-13T09:18:49Z</time>
      </trkpt>
      <trkpt lat="45.36824" lon="6.55946">
        <ele>2208.74</ele>
        <time>2017-08-13T09:19:05Z</time>
      </trkpt>
      <trkpt lat="45.36815" lon="6.55968">
        <ele>2203.53</ele>
        <time>2017-08-13T09:19:22Z</time>
      </trkpt>
      <trkpt lat="45.36813" lon="6.55995">
        <ele>2202.53</ele>
        <time>2017-08-13T09:19:39Z</time>
      </trkpt>
      <trkpt lat="45.36816" lon="6.5602">
        <ele>2202.72</ele>
        <time>2017-08-13T09:19:56Z</time>
      </trkpt>
      <trkpt lat="45.36812" lon="6.56045">
        <ele>2203.53</ele>
        <time>2017-08-13T09:20:13Z</time>
      </trkpt>
      <trkpt lat="45.36808" lon="6.56072">
        <ele>2201.57</ele>
        <time>2017-08-13T09:20:31Z</time>
      </trkpt>
      <trkpt lat="45.36806" lon="6.56098">
        <ele>2204.29</ele>
        <time>2017-08-13T09:20:47Z</time>
      </trkpt>
      <trkpt lat="45.36803" lon="6.56124">
        <ele>2207.53</ele>
        <time>2017-08-13T09:21:03Z</time>
      </trkpt>
      <trkpt lat="45.36801" lon="6.5615">
        <ele>2214.53</ele>
        <time>2017-08-13T09:21:18Z</time>
      </trkpt>
      <trkpt lat="45.36789" lon="6.5617">
        <ele>2215.49</ele>
        <time>2017-08-13T09:21:36Z</time>
      </trkpt>
      <trkpt lat="45.36771" lon="6.56168">
        <ele>2212.53</ele>
        <time>2017-08-13T09:21:55Z</time>
      </trkpt>
      <trkpt lat="45.36756" lon="6.56182">
        <ele>2211.53</ele>
        <time>2017-08-13T09:22:10Z</time>
      </trkpt>
      <trkpt lat="45.36747" lon="6.56206">
        <ele>2210.53</ele>
        <time>2017-08-13T09:22:27Z</time>
      </trkpt>
      <trkpt lat="45.36734" lon="6.56225">
        <ele>2209.57</ele>
        <time>2017-08-13T09:22:43Z</time>
      </trkpt>
      <trkpt lat="45.36717" lon="6.56237">
        <ele>2210.54</ele>
        <time>2017-08-13T09:23:01Z</time>
      </trkpt>
      <trkpt lat="45.36699" lon="6.56238">
        <ele>2208.5</ele>
        <time>2017-08-13T09:23:19Z</time>
      </trkpt>
      <trkpt lat="45.3668" lon="6.56237">
        <ele>2208.53</ele>
        <time>2017-08-13T09:23:38Z</time>
      </trkpt>
      <trkpt lat="45.36661" lon="6.56234">
        <ele>2207.53</ele>
        <time>2017-08-13T09:23:56Z</time>
      </trkpt>
      <trkpt lat="45.36645" lon="6.56246">
        <ele>2205.49</ele>
        <time>2017-08-13T09:24:12Z</time>
      </trkpt>
      <trkpt lat="45.36628" lon="6.56257">
        <ele>2205.73</ele>
        <time>2017-08-13T09:24:39Z</time>
      </trkpt>
      <trkpt lat="45.36611" lon="6.56265">
        <ele>2199.53</ele>
        <time>2017-08-13T09:26:44Z</time>
      </trkpt>
      <trkpt lat="45.36593" lon="6.56267">
        <ele>2198.54</ele>
        <time>2017-08-13T09:27:01Z</time>
      </trkpt>
      <trkpt lat="45.36577" lon="6.56282">
        <ele>2195.56</ele>
        <time>2017-08-13T09:27:18Z</time>
      </trkpt>
      <trkpt lat="45.36565" lon="6.56301">
        <ele>2192.53</ele>
        <time>2017-08-13T09:27:35Z</time>
      </trkpt>
      <trkpt lat="45.36548" lon="6.56314">
        <ele>2187.74</ele>
        <time>2017-08-13T09:27:54Z</time>
      </trkpt>
      <trkpt lat="45.36531" lon="6.56321">
        <ele>2184.72</ele>
        <time>2017-08-13T09:28:13Z</time>
      </trkpt>
      <trkpt lat="45.36516" lon="6.56336">
        <ele>2185.73</ele>
        <time>2017-08-13T09:29:10Z</time>
      </trkpt>
      <trkpt lat="45.36497" lon="6.56337">
        <ele>2183.52</ele>
        <time>2017-08-13T09:29:26Z</time>
      </trkpt>
      <trkpt lat="45.36479" lon="6.56333">
        <ele>2183.5</ele>
        <time>2017-08-13T09:29:41Z</time>
      </trkpt>
      <trkpt lat="45.36461" lon="6.56336">
        <ele>2182.52</ele>
        <time>2017-08-13T09:29:55Z</time>
      </trkpt>
      <trkpt lat="45.36443" lon="6.56342">
        <ele>2182.53</ele>
        <time>2017-08-13T09:30:09Z</time>
      </trkpt>
      <trkpt lat="45.36425" lon="6.56333">
        <ele>2183.52</ele>
        <time>2017-08-13T09:30:25Z</time>
      </trkpt>
      <trkpt lat="45.3641" lon="6.56317">
        <ele>2184.53</ele>
        <time>2017-08-13T09:30:41Z</time>
      </trkpt>
      <trkpt lat="45.36394" lon="6.56307">
        <ele>2184.53</ele>
        <time>2017-08-13T09:30:57Z</time>
      </trkpt>
      <trkpt lat="45.36375" lon="6.56305">
        <ele>2181.5</ele>
        <time>2017-08-13T09:31:13Z</time>
      </trkpt>
      <trkpt lat="45.36358" lon="6.56312">
        <ele>2182.53</ele>
        <time>2017-08-13T09:31:29Z</time>
      </trkpt>
      <trkpt lat="45.36343" lon="6.56328">
        <ele>2180.73</ele>
        <time>2017-08-13T09:31:43Z</time>
      </trkpt>
      <trkpt lat="45.36337" lon="6.56352">
        <ele>2178.53</ele>
        <time>2017-08-13T09:31:57Z</time>
      </trkpt>
      <trkpt lat="45.36339" lon="6.56378">
        <ele>2177.57</ele>
        <time>2017-08-13T09:32:11Z</time>
      </trkpt>
      <trkpt lat="45.36339" lon="6.56403">
        <ele>2175.53</ele>
        <time>2017-08-13T09:32:27Z</time>
      </trkpt>
      <trkpt lat="45.36327" lon="6.56424">
        <ele>2172.49</ele>
        <time>2017-08-13T09:32:45Z</time>
      </trkpt>
      <trkpt lat="45.36313" lon="6.5644">
        <ele>2174.33</ele>
        <time>2017-08-13T09:33:03Z</time>
      </trkpt>
      <trkpt lat="45.36299" lon="6.56459">
        <ele>2174.53</ele>
        <time>2017-08-13T09:33:21Z</time>
      </trkpt>
      <trkpt lat="45.3629" lon="6.56483">
        <ele>2176.53</ele>
        <time>2017-08-13T09:33:36Z</time>
      </trkpt>
      <trkpt lat="45.36284" lon="6.56507">
        <ele>2174.54</ele>
        <time>2017-08-13T09:33:51Z</time>
      </trkpt>
      <trkpt lat="45.36278" lon="6.56531">
        <ele>2170.53</ele>
        <time>2017-08-13T09:34:06Z</time>
      </trkpt>
      <trkpt lat="45.36274" lon="6.56557">
        <ele>2169.52</ele>
        <time>2017-08-13T09:34:21Z</time>
      </trkpt>
      <trkpt lat="45.36272" lon="6.56584">
        <ele>2167.37</ele>
        <time>2017-08-13T09:34:37Z</time>
      </trkpt>
      <trkpt lat="45.36286" lon="6.56604">
        <ele>2161.58</ele>
        <time>2017-08-13T09:34:54Z</time>
      </trkpt>
      <trkpt lat="45.36295" lon="6.56626">
        <ele>2160.53</ele>
        <time>2017-08-13T09:35:09Z</time>
      </trkpt>
      <trkpt lat="45.36306" lon="6.56647">
        <ele>2157.57</ele>
        <time>2017-08-13T09:35:25Z</time>
      </trkpt>
      <trkpt lat="45.36309" lon="6.56673">
        <ele>2160.32</ele>
        <time>2017-08-13T09:35:44Z</time>
      </trkpt>
      <trkpt lat="45.36305" lon="6.56699">
        <ele>2158.52</ele>
        <time>2017-08-13T09:36:03Z</time>
      </trkpt>
      <trkpt lat="45.36304" lon="6.56725">
        <ele>2155.53</ele>
        <time>2017-08-13T09:36:19Z</time>
      </trkpt>
      <trkpt lat="45.36302" lon="6.56752">
        <ele>2151.53</ele>
        <time>2017-08-13T09:36:37Z</time>
      </trkpt>
      <trkpt lat="45.36302" lon="6.56778">
        <ele>2148.54</ele>
        <time>2017-08-13T09:36:56Z</time>
      </trkpt>
      <trkpt lat="45.36312" lon="6.56799">
        <ele>2143.7</ele>
        <time>2017-08-13T09:37:13Z</time>
      </trkpt>
      <trkpt lat="45.3633" lon="6.56803">
        <ele>2143.53</ele>
        <time>2017-08-13T09:37:32Z</time>
      </trkpt>
      <trkpt lat="45.36348" lon="6.56801">
        <ele>2144.33</ele>
        <time>2017-08-13T09:37:50Z</time>
      </trkpt>
      <trkpt lat="45.36366" lon="6.56797">
        <ele>2142.53</ele>
        <time>2017-08-13T09:38:06Z</time>
      </trkpt>
      <trkpt lat="45.36384" lon="6.56792">
        <ele>2143.53</ele>
        <time>2017-08-13T09:38:24Z</time>
      </trkpt>
      <trkpt lat="45.36401" lon="6.56801">
        <ele>2140.53</ele>
        <time>2017-08-13T09:38:42Z</time>
      </trkpt>
      <trkpt lat="45.36402" lon="6.56827">
        <ele>2140.57</ele>
        <time>2017-08-13T09:39:02Z</time>
      </trkpt>
      <trkpt lat="45.36409" lon="6.56852">
        <ele>2140.54</ele>
        <time>2017-08-13T09:39:21Z</time>
      </trkpt>
      <trkpt lat="45.36419" lon="6.56876">
        <ele>2140.32</ele>
        <time>2017-08-13T09:39:37Z</time>
      </trkpt>
      <trkpt lat="45.36431" lon="6.56895">
        <ele>2143.33</ele>
        <time>2017-08-13T09:39:52Z</time>
      </trkpt>
      <trkpt lat="45.36446" lon="6.56912">
        <ele>2142.57</ele>
        <time>2017-08-13T09:40:08Z</time>
      </trkpt>
      <trkpt lat="45.36458" lon="6.56931">
        <ele>2141.73</ele>
        <time>2017-08-13T09:40:24Z</time>
      </trkpt>
      <trkpt lat="45.36464" lon="6.56956">
        <ele>2138.54</ele>
        <time>2017-08-13T09:40:41Z</time>
      </trkpt>
      <trkpt lat="45.36468" lon="6.56982">
        <ele>2137.53</ele>
        <time>2017-08-13T09:41:21Z</time>
      </trkpt>
      <trkpt lat="45.36473" lon="6.57009">
        <ele>2137.33</ele>
        <time>2017-08-13T09:41:37Z</time>
      </trkpt>
      <trkpt lat="45.36477" lon="6.57034">
        <ele>2138.53</ele>
        <time>2017-08-13T09:41:52Z</time>
      </trkpt>
      <trkpt lat="45.36482" lon="6.57059">
        <ele>2136.77</ele>
        <time>2017-08-13T09:42:08Z</time>
      </trkpt>
      <trkpt lat="45.36482" lon="6.57085">
        <ele>2131.57</ele>
        <time>2017-08-13T09:42:27Z</time>
      </trkpt>
      <trkpt lat="45.36477" lon="6.5711">
        <ele>2131.73</ele>
        <time>2017-08-13T09:42:44Z</time>
      </trkpt>
      <trkpt lat="45.36467" lon="6.57132">
        <ele>2131.33</ele>
        <time>2017-08-13T09:43:01Z</time>
      </trkpt>
      <trkpt lat="45.36455" lon="6.57151">
        <ele>2128.73</ele>
        <time>2017-08-13T09:43:18Z</time>
      </trkpt>
      <trkpt lat="45.36439" lon="6.57165">
        <ele>2125.57</ele>
        <time>2017-08-13T09:43:35Z</time>
      </trkpt>
      <trkpt lat="45.36423" lon="6.57179">
        <ele>2124.53</ele>
        <time>2017-08-13T09:43:51Z</time>
      </trkpt>
      <trkpt lat="45.36407" lon="6.57191">
        <ele>2122.52</ele>
        <time>2017-08-13T09:44:06Z</time>
      </trkpt>
      <trkpt lat="45.36391" lon="6.57203">
        <ele>2118.73</ele>
        <time>2017-08-13T09:44:21Z</time>
      </trkpt>
      <trkpt lat="45.36375" lon="6.57218">
        <ele>2115.54</ele>
        <time>2017-08-13T09:44:38Z</time>
      </trkpt>
      <trkpt lat="45.36359" lon="6.57232">
        <ele>2112.33</ele>
        <time>2017-08-13T09:44:55Z</time>
      </trkpt>
      <trkpt lat="45.36344" lon="6.57247">
        <ele>2111.53</ele>
        <time>2017-08-13T09:45:12Z</time>
      </trkpt>
      <trkpt lat="45.36328" lon="6.57263">
        <ele>2112.68</ele>
        <time>2017-08-13T09:45:27Z</time>
      </trkpt>
      <trkpt lat="45.36314" lon="6.57281">
        <ele>2112.57</ele>
        <time>2017-08-13T09:45:43Z</time>
      </trkpt>
      <trkpt lat="45.36301" lon="6.57299">
        <ele>2112.73</ele>
        <time>2017-08-13T09:45:59Z</time>
      </trkpt>
      <trkpt lat="45.36287" lon="6.57317">
        <ele>2112.53</ele>
        <time>2017-08-13T09:46:17Z</time>
      </trkpt>
      <trkpt lat="45.36272" lon="6.57333">
        <ele>2110.53</ele>
        <time>2017-08-13T09:46:35Z</time>
      </trkpt>
      <trkpt lat="45.36257" lon="6.57348">
        <ele>2110.72</ele>
        <time>2017-08-13T09:46:53Z</time>
      </trkpt>
      <trkpt lat="45.36241" lon="6.57361">
        <ele>2107.54</ele>
        <time>2017-08-13T09:47:10Z</time>
      </trkpt>
      <trkpt lat="45.36226" lon="6.57376">
        <ele>2103.53</ele>
        <time>2017-08-13T09:47:27Z</time>
      </trkpt>
      <trkpt lat="45.36212" lon="6.57393">
        <ele>2103.33</ele>
        <time>2017-08-13T09:47:44Z</time>
      </trkpt>
      <trkpt lat="45.36199" lon="6.57412">
        <ele>2103.53</ele>
        <time>2017-08-13T09:48:00Z</time>
      </trkpt>
      <trkpt lat="45.36186" lon="6.57432">
        <ele>2101.53</ele>
        <time>2017-08-13T09:48:16Z</time>
      </trkpt>
      <trkpt lat="45.36173" lon="6.5745">
        <ele>2098.57</ele>
        <time>2017-08-13T09:48:33Z</time>
      </trkpt>
      <trkpt lat="45.36159" lon="6.57467">
        <ele>2096.54</ele>
        <time>2017-08-13T09:48:49Z</time>
      </trkpt>
      <trkpt lat="45.36145" lon="6.57486">
        <ele>2095.73</ele>
        <time>2017-08-13T09:49:06Z</time>
      </trkpt>
      <trkpt lat="45.36131" lon="6.57503">
        <ele>2093.53</ele>
        <time>2017-08-13T09:49:22Z</time>
      </trkpt>
      <trkpt lat="45.36116" lon="6.5752">
        <ele>2090.73</ele>
        <time>2017-08-13T09:49:39Z</time>
      </trkpt>
      <trkpt lat="45.36099" lon="6.57531">
        <ele>2088.37</ele>
        <time>2017-08-13T09:49:57Z</time>
      </trkpt>
      <trkpt lat="45.36085" lon="6.57546">
        <ele>2084.54</ele>
        <time>2017-08-13T09:50:14Z</time>
      </trkpt>
      <trkpt lat="45.36068" lon="6.57559">
        <ele>2083.53</ele>
        <time>2017-08-13T09:50:32Z</time>
      </trkpt>
      <trkpt lat="45.36068" lon="6.57585">
        <ele>2077.74</ele>
        <time>2017-08-13T09:51:27Z</time>
      </trkpt>
      <trkpt lat="45.36059" lon="6.57607">
        <ele>2068.58</ele>
        <time>2017-08-13T09:51:53Z</time>
      </trkpt>
      <trkpt lat="45.36054" lon="6.57632">
        <ele>2062.77</ele>
        <time>2017-08-13T09:52:13Z</time>
      </trkpt>
      <trkpt lat="45.36051" lon="6.57658">
        <ele>2058.73</ele>
        <time>2017-08-13T09:52:35Z</time>
      </trkpt>
      <trkpt lat="45.36059" lon="6.57682">
        <ele>2053.73</ele>
        <time>2017-08-13T09:52:57Z</time>
      </trkpt>
      <trkpt lat="45.36055" lon="6.57708">
        <ele>2045.73</ele>
        <time>2017-08-13T09:53:28Z</time>
      </trkpt>
      <trkpt lat="45.36052" lon="6.57734">
        <ele>2044.37</ele>
        <time>2017-08-13T09:53:50Z</time>
      </trkpt>
      <trkpt lat="45.36063" lon="6.57755">
        <ele>2038.73</ele>
        <time>2017-08-13T09:54:20Z</time>
      </trkpt>
      <trkpt lat="45.36067" lon="6.5778">
        <ele>2032.54</ele>
        <time>2017-08-13T09:54:49Z</time>
      </trkpt>
      <trkpt lat="45.36079" lon="6.578">
        <ele>2023.57</ele>
        <time>2017-08-13T09:55:17Z</time>
      </trkpt>
      <trkpt lat="45.36094" lon="6.57816">
        <ele>2019.53</ele>
        <time>2017-08-13T09:55:42Z</time>
      </trkpt>
      <trkpt lat="45.36112" lon="6.5782">
        <ele>2015.57</ele>
        <time>2017-08-13T09:56:04Z</time>
      </trkpt>
      <trkpt lat="45.36129" lon="6.57827">
        <ele>2011.53</ele>
        <time>2017-08-13T09:59:42Z</time>
      </trkpt>
      <trkpt lat="45.36145" lon="6.5784">
        <ele>2005.54</ele>
        <time>2017-08-13T10:00:02Z</time>
      </trkpt>
      <trkpt lat="45.36162" lon="6.57849">
        <ele>1999.73</ele>
        <time>2017-08-13T10:00:21Z</time>
      </trkpt>
      <trkpt lat="45.3618" lon="6.57848">
        <ele>1993.54</ele>
        <time>2017-08-13T10:00:43Z</time>
      </trkpt>
      <trkpt lat="45.36196" lon="6.57836">
        <ele>1988.72</ele>
        <time>2017-08-13T10:01:09Z</time>
      </trkpt>
      <trkpt lat="45.36215" lon="6.57832">
        <ele>1978.53</ele>
        <time>2017-08-13T10:01:39Z</time>
      </trkpt>
      <trkpt lat="45.36233" lon="6.57827">
        <ele>1974.73</ele>
        <time>2017-08-13T10:02:01Z</time>
      </trkpt>
      <trkpt lat="45.36248" lon="6.57812">
        <ele>1967.74</ele>
        <time>2017-08-13T10:02:18Z</time>
      </trkpt>
      <trkpt lat="45.36267" lon="6.57816">
        <ele>1963.73</ele>
        <time>2017-08-13T10:02:45Z</time>
      </trkpt>
      <trkpt lat="45.36285" lon="6.57823">
        <ele>1961.54</ele>
        <time>2017-08-13T10:02:59Z</time>
      </trkpt>
      <trkpt lat="45.36303" lon="6.57831">
        <ele>1957.56</ele>
        <time>2017-08-13T10:03:20Z</time>
      </trkpt>
      <trkpt lat="45.36321" lon="6.5783">
        <ele>1952.57</ele>
        <time>2017-08-13T10:03:40Z</time>
      </trkpt>
      <trkpt lat="45.3634" lon="6.57831">
        <ele>1947.73</ele>
        <time>2017-08-13T10:04:00Z</time>
      </trkpt>
      <trkpt lat="45.36358" lon="6.57829">
        <ele>1941.73</ele>
        <time>2017-08-13T10:04:22Z</time>
      </trkpt>
      <trkpt lat="45.36376" lon="6.57826">
        <ele>1937.74</ele>
        <time>2017-08-13T10:04:40Z</time>
      </trkpt>
      <trkpt lat="45.36394" lon="6.57824">
        <ele>1934.37</ele>
        <time>2017-08-13T10:04:59Z</time>
      </trkpt>
      <trkpt lat="45.36413" lon="6.57821">
        <ele>1930.69</ele>
        <time>2017-08-13T10:05:26Z</time>
      </trkpt>
      <trkpt lat="45.36431" lon="6.57829">
        <ele>1925.57</ele>
        <time>2017-08-13T10:05:44Z</time>
      </trkpt>
      <trkpt lat="45.36449" lon="6.57834">
        <ele>1922.57</ele>
        <time>2017-08-13T10:06:01Z</time>
      </trkpt>
      <trkpt lat="45.36467" lon="6.57826">
        <ele>1916.7</ele>
        <time>2017-08-13T10:06:19Z</time>
      </trkpt>
      <trkpt lat="45.36485" lon="6.57822">
        <ele>1911.53</ele>
        <time>2017-08-13T10:06:34Z</time>
      </trkpt>
      <trkpt lat="45.36504" lon="6.57819">
        <ele>1907.53</ele>
        <time>2017-08-13T10:06:51Z</time>
      </trkpt>
      <trkpt lat="45.36522" lon="6.57814">
        <ele>1904.69</ele>
        <time>2017-08-13T10:07:08Z</time>
      </trkpt>
      <trkpt lat="45.3654" lon="6.57806">
        <ele>1896.61</ele>
        <time>2017-08-13T10:07:25Z</time>
      </trkpt>
      <trkpt lat="45.36559" lon="6.57805">
        <ele>1895.74</ele>
        <time>2017-08-13T10:07:44Z</time>
      </trkpt>
      <trkpt lat="45.36577" lon="6.57801">
        <ele>1894.33</ele>
        <time>2017-08-13T10:08:01Z</time>
      </trkpt>
      <trkpt lat="45.36595" lon="6.57803">
        <ele>1891.73</ele>
        <time>2017-08-13T10:08:18Z</time>
      </trkpt>
      <trkpt lat="45.36614" lon="6.57804">
        <ele>1887.53</ele>
        <time>2017-08-13T10:08:34Z</time>
      </trkpt>
      <trkpt lat="45.36632" lon="6.5781">
        <ele>1883.58</ele>
        <time>2017-08-13T10:08:51Z</time>
      </trkpt>
      <trkpt lat="45.3665" lon="6.57812">
        <ele>1881.57</ele>
        <time>2017-08-13T10:09:07Z</time>
      </trkpt>
      <trkpt lat="45.36669" lon="6.5781">
        <ele>1878.56</ele>
        <time>2017-08-13T10:09:21Z</time>
      </trkpt>
      <trkpt lat="45.36687" lon="6.57806">
        <ele>1872.61</ele>
        <time>2017-08-13T10:09:36Z</time>
      </trkpt>
      <trkpt lat="45.36705" lon="6.57797">
        <ele>1868.57</ele>
        <time>2017-08-13T10:09:51Z</time>
      </trkpt>
      <trkpt lat="45.36721" lon="6.57784">
        <ele>1865.53</ele>
        <time>2017-08-13T10:10:06Z</time>
      </trkpt>
      <trkpt lat="45.36738" lon="6.57776">
        <ele>1864.57</ele>
        <time>2017-08-13T10:10:22Z</time>
      </trkpt>
      <trkpt lat="45.36756" lon="6.57773">
        <ele>1862.53</ele>
        <time>2017-08-13T10:10:37Z</time>
      </trkpt>
      <trkpt lat="45.36774" lon="6.57766">
        <ele>1864.52</ele>
        <time>2017-08-13T10:10:52Z</time>
      </trkpt>
      <trkpt lat="45.36788" lon="6.57749">
        <ele>1859.53</ele>
        <time>2017-08-13T10:11:05Z</time>
      </trkpt>
      <trkpt lat="45.368" lon="6.57729">
        <ele>1859.54</ele>
        <time>2017-08-13T10:11:19Z</time>
      </trkpt>
      <trkpt lat="45.36809" lon="6.57706">
        <ele>1857.77</ele>
        <time>2017-08-13T10:11:33Z</time>
      </trkpt>
      <trkpt lat="45.3682" lon="6.57685">
        <ele>1859.37</ele>
        <time>2017-08-13T10:11:48Z</time>
      </trkpt>
      <trkpt lat="45.36833" lon="6.57667">
        <ele>1856.34</ele>
        <time>2017-08-13T10:12:04Z</time>
      </trkpt>
      <trkpt lat="45.3685" lon="6.57657">
        <ele>1854.73</ele>
        <time>2017-08-13T10:12:20Z</time>
      </trkpt>
      <trkpt lat="45.36868" lon="6.57648">
        <ele>1853.53</ele>
        <time>2017-08-13T10:12:38Z</time>
      </trkpt>
      <trkpt lat="45.36885" lon="6.57639">
        <ele>1851.72</ele>
        <time>2017-08-13T10:12:54Z</time>
      </trkpt>
      <trkpt lat="45.36902" lon="6.57629">
        <ele>1849.57</ele>
        <time>2017-08-13T10:13:10Z</time>
      </trkpt>
      <trkpt lat="45.36919" lon="6.57616">
        <ele>1846.74</ele>
        <time>2017-08-13T10:13:27Z</time>
      </trkpt>
      <trkpt lat="45.36936" lon="6.57606">
        <ele>1840.54</ele>
        <time>2017-08-13T10:13:45Z</time>
      </trkpt>
      <trkpt lat="45.3693" lon="6.57631">
        <ele>1834.57</ele>
        <time>2017-08-13T10:14:22Z</time>
      </trkpt>
      <trkpt lat="45.36918" lon="6.57651">
        <ele>1833.53</ele>
        <time>2017-08-13T10:14:39Z</time>
      </trkpt>
      <trkpt lat="45.36911" lon="6.57676">
        <ele>1832.29</ele>
        <time>2017-08-13T10:15:04Z</time>
      </trkpt>
      <trkpt lat="45.36906" lon="6.57701">
        <ele>1829.73</ele>
        <time>2017-08-13T10:15:20Z</time>
      </trkpt>
      <trkpt lat="45.36909" lon="6.57728">
        <ele>1827.53</ele>
        <time>2017-08-13T10:15:36Z</time>
      </trkpt>
      <trkpt lat="45.36924" lon="6.57744">
        <ele>1820.57</ele>
        <time>2017-08-13T10:15:53Z</time>
      </trkpt>
      <trkpt lat="45.36942" lon="6.5774">
        <ele>1814.58</ele>
        <time>2017-08-13T10:16:13Z</time>
      </trkpt>
      <trkpt lat="45.36959" lon="6.57732">
        <ele>1810.53</ele>
        <time>2017-08-13T10:16:35Z</time>
      </trkpt>
      <trkpt lat="45.36976" lon="6.57722">
        <ele>1796.62</ele>
        <time>2017-08-13T10:17:04Z</time>
      </trkpt>
      <trkpt lat="45.36991" lon="6.57706">
        <ele>1792.74</ele>
        <time>2017-08-13T10:17:40Z</time>
      </trkpt>
      <trkpt lat="45.3701" lon="6.57707">
        <ele>1786.57</ele>
        <time>2017-08-13T10:18:11Z</time>
      </trkpt>
      <trkpt lat="45.37023" lon="6.5769">
        <ele>1779.53</ele>
        <time>2017-08-13T10:18:40Z</time>
      </trkpt>
      <trkpt lat="45.37037" lon="6.57708">
        <ele>1779.32</ele>
        <time>2017-08-13T10:19:41Z</time>
      </trkpt>
      <trkpt lat="45.37055" lon="6.57711">
        <ele>1775.54</ele>
        <time>2017-08-13T10:20:01Z</time>
      </trkpt>
      <trkpt lat="45.37073" lon="6.57702">
        <ele>1770.75</ele>
        <time>2017-08-13T10:20:18Z</time>
      </trkpt>
      <trkpt lat="45.37084" lon="6.57681">
        <ele>1767.76</ele>
        <time>2017-08-13T10:20:32Z</time>
      </trkpt>
      <trkpt lat="45.37102" lon="6.57674">
        <ele>1764.55</ele>
        <time>2017-08-13T10:20:49Z</time>
      </trkpt>
      <trkpt lat="45.3712" lon="6.57663">
        <ele>1765.81</ele>
        <time>2017-08-13T10:21:07Z</time>
      </trkpt>
      <trkpt lat="45.37137" lon="6.57651">
        <ele>1762.53</ele>
        <time>2017-08-13T10:21:22Z</time>
      </trkpt>
      <trkpt lat="45.3715" lon="6.57633">
        <ele>1761.56</ele>
        <time>2017-08-13T10:21:35Z</time>
      </trkpt>
      <trkpt lat="45.37161" lon="6.57612">
        <ele>1765.53</ele>
        <time>2017-08-13T10:21:47Z</time>
      </trkpt>
      <trkpt lat="45.37169" lon="6.57588">
        <ele>1768.56</ele>
        <time>2017-08-13T10:22:03Z</time>
      </trkpt>
      <trkpt lat="45.37176" lon="6.57564">
        <ele>1770.53</ele>
        <time>2017-08-13T10:22:19Z</time>
      </trkpt>
      <trkpt lat="45.37183" lon="6.5754">
        <ele>1771.72</ele>
        <time>2017-08-13T10:22:36Z</time>
      </trkpt>
      <trkpt lat="45.37192" lon="6.57517">
        <ele>1772.69</ele>
        <time>2017-08-13T10:22:52Z</time>
      </trkpt>
      <trkpt lat="45.37203" lon="6.57496">
        <ele>1779.49</ele>
        <time>2017-08-13T10:23:09Z</time>
      </trkpt>
      <trkpt lat="45.37216" lon="6.57477">
        <ele>1780.69</ele>
        <time>2017-08-13T10:23:30Z</time>
      </trkpt>
      <trkpt lat="45.37226" lon="6.57454">
        <ele>1772.45</ele>
        <time>2017-08-13T10:28:31Z</time>
      </trkpt>
      <trkpt lat="45.37234" lon="6.57431">
        <ele>1776.37</ele>
        <time>2017-08-13T10:28:51Z</time>
      </trkpt>
      <trkpt lat="45.37244" lon="6.57409">
        <ele>1778.52</ele>
        <time>2017-08-13T10:29:08Z</time>
      </trkpt>
      <trkpt lat="45.37253" lon="6.57386">
        <ele>1780.53</ele>
        <time>2017-08-13T10:29:29Z</time>
      </trkpt>
      <trkpt lat="45.37267" lon="6.57368">
        <ele>1778.59</ele>
        <time>2017-08-13T10:30:02Z</time>
      </trkpt>
      <trkpt lat="45.37283" lon="6.57354">
        <ele>1776.36</ele>
        <time>2017-08-13T10:30:18Z</time>
      </trkpt>
      <trkpt lat="45.37295" lon="6.57335">
        <ele>1782.08</ele>
        <time>2017-08-13T10:30:37Z</time>
      </trkpt>
      <trkpt lat="45.37307" lon="6.57315">
        <ele>1785.49</ele>
        <time>2017-08-13T10:31:00Z</time>
      </trkpt>
      <trkpt lat="45.37319" lon="6.57296">
        <ele>1784.75</ele>
        <time>2017-08-13T10:31:19Z</time>
      </trkpt>
      <trkpt lat="45.37336" lon="6.57284">
        <ele>1791.43</ele>
        <time>2017-08-13T10:31:43Z</time>
      </trkpt>
      <trkpt lat="45.37348" lon="6.57263">
        <ele>1792.81</ele>
        <time>2017-08-13T10:32:04Z</time>
      </trkpt>
      <trkpt lat="45.37357" lon="6.5724">
        <ele>1791.49</ele>
        <time>2017-08-13T10:32:20Z</time>
      </trkpt>
      <trkpt lat="45.37362" lon="6.57215">
        <ele>1792.16</ele>
        <time>2017-08-13T10:32:37Z</time>
      </trkpt>
      <trkpt lat="45.37346" lon="6.57227">
        <ele>1789.73</ele>
        <time>2017-08-13T10:36:28Z</time>
      </trkpt>
      <trkpt lat="45.37337" lon="6.5725">
        <ele>1789.74</ele>
        <time>2017-08-13T10:36:49Z</time>
      </trkpt>
      <trkpt lat="45.37327" lon="6.57272">
        <ele>1790.73</ele>
        <time>2017-08-13T10:37:13Z</time>
      </trkpt>
    </trkseg>
  </trk>
</gpx>